PWSweather.com
Personal Weather Stations
Station Observations
EI4HQ
Cork Harbour, CobhIE

Cork HarbourCobhIE

Lat: 51.85, Lon: -8.29

Elevation: 252

Station Type: Davis Vantage Pro2

http://www.corkharbourweather.ie

High Low Average
Temperature 30.6°F-0.8°C 21.6°F-5.8°C 26.4°F-3.1°C
Dew Point 28.0°F-2.2°C 17.6°F-8.0°C 22.7°F-5.2°C
Winds 17.0 mph 27.4 kmh 8.0 mph 12.9 kmh 12.0 mph NE19.3 kmh NE
Wind Gusts 32.0 mph51.5 kmh 14.0 mph22.5 kmh 23.0 mph37.0 kmh
Humidity 92% 80% 86%
Pressure 29.83 in1010.2 mb 29.23 in989.8 mb -
Precipitation 0.00 in0.0 mm - -
Hour Temp Dew Point Humidity Winds Wind Gusts Pressure Precip Precip Rate Daily Precip Total
12:00 AM 24.3°F-4.3°C 22.3°F-5.4°C 92% 11.0 mph NE17.7 kmh NE 22.0 mph35.4 kmh 29.83 in1010.2 mb 0.00 in0.0 mm 0.00 in0.0 mm 0.00 in0.0 mm
12:03 AM 24.3°F-4.3°C 22.3°F-5.4°C 92% 11.0 mph NE17.7 kmh NE 22.0 mph35.4 kmh 29.83 in1010.2 mb 0.00 in0.0 mm 0.00 in0.0 mm 0.00 in0.0 mm
12:06 AM 24.1°F-4.4°C 22.1°F-5.5°C 92% 12.0 mph NE19.3 kmh NE 22.0 mph35.4 kmh 29.83 in1010.2 mb 0.00 in0.0 mm 0.00 in0.0 mm 0.00 in0.0 mm
12:09 AM 24.1°F-4.4°C 21.7°F-5.7°C 91% 12.0 mph NE19.3 kmh NE 22.0 mph35.4 kmh 29.83 in1010.2 mb 0.00 in0.0 mm 0.00 in0.0 mm 0.00 in0.0 mm
12:12 AM 23.9°F-4.5°C 21.7°F-5.7°C 91% 12.0 mph NE19.3 kmh NE 22.0 mph35.4 kmh 29.83 in1010.2 mb 0.00 in0.0 mm 0.00 in0.0 mm 0.00 in0.0 mm
12:15 AM 23.7°F-4.6°C 21.6°F-5.8°C 91% 13.0 mph NE20.9 kmh NE 26.0 mph41.8 kmh 29.83 in1010.2 mb 0.00 in0.0 mm 0.00 in0.0 mm 0.00 in0.0 mm
12:18 AM 23.7°F-4.6°C 21.4°F-5.9°C 90% 13.0 mph NE20.9 kmh NE 26.0 mph41.8 kmh 29.83 in1010.2 mb 0.00 in0.0 mm 0.00 in0.0 mm 0.00 in0.0 mm
12:21 AM 23.7°F-4.6°C 21.4°F-5.9°C 90% 13.0 mph NE20.9 kmh NE 26.0 mph41.8 kmh 29.83 in1010.2 mb 0.00 in0.0 mm 0.00 in0.0 mm 0.00 in0.0 mm
12:24 AM 23.7°F-4.6°C 21.2°F-6.0°C 90% 14.0 mph NE22.5 kmh NE 23.0 mph37.0 kmh 29.83 in1010.2 mb 0.00 in0.0 mm 0.00 in0.0 mm 0.00 in0.0 mm
12:27 AM 23.5°F-4.7°C 21.0°F-6.1°C 90% 14.0 mph NE22.5 kmh NE 24.0 mph38.6 kmh 29.83 in1010.2 mb 0.00 in0.0 mm 0.00 in0.0 mm 0.00 in0.0 mm
12:30 AM 23.5°F-4.7°C 21.0°F-6.1°C 90% 14.0 mph NE22.5 kmh NE 24.0 mph38.6 kmh 29.83 in1010.2 mb 0.00 in0.0 mm 0.00 in0.0 mm 0.00 in0.0 mm
12:33 AM 23.7°F-4.6°C 21.2°F-6.0°C 90% 14.0 mph NE22.5 kmh NE 24.0 mph38.6 kmh 29.83 in1010.2 mb 0.00 in0.0 mm 0.00 in0.0 mm 0.00 in0.0 mm
12:36 AM 23.7°F-4.6°C 21.0°F-6.1°C 89% 13.0 mph NE20.9 kmh NE 23.0 mph37.0 kmh 29.83 in1010.2 mb 0.00 in0.0 mm 0.00 in0.0 mm 0.00 in0.0 mm
12:39 AM 23.5°F-4.7°C 20.8°F-6.2°C 89% 11.0 mph NE17.7 kmh NE 20.0 mph32.2 kmh 29.83 in1010.2 mb 0.00 in0.0 mm 0.00 in0.0 mm 0.00 in0.0 mm
12:42 AM 23.5°F-4.7°C 20.8°F-6.2°C 89% 11.0 mph NE17.7 kmh NE 19.0 mph30.6 kmh 29.83 in1010.2 mb 0.00 in0.0 mm 0.00 in0.0 mm 0.00 in0.0 mm
12:45 AM 23.5°F-4.7°C 20.7°F-6.3°C 89% 10.0 mph NE16.1 kmh NE 19.0 mph30.6 kmh 29.82 in1009.8 mb 0.00 in0.0 mm 0.00 in0.0 mm 0.00 in0.0 mm
12:48 AM 23.4°F-4.8°C 20.7°F-6.3°C 89% 10.0 mph NE16.1 kmh NE 19.0 mph30.6 kmh 29.82 in1009.8 mb 0.00 in0.0 mm 0.00 in0.0 mm 0.00 in0.0 mm
12:51 AM 23.4°F-4.8°C 20.7°F-6.3°C 89% 9.0 mph NE14.5 kmh NE 18.0 mph29.0 kmh 29.82 in1009.8 mb 0.00 in0.0 mm 0.00 in0.0 mm 0.00 in0.0 mm
12:54 AM 23.4°F-4.8°C 20.5°F-6.4°C 89% 12.0 mph NE19.3 kmh NE 23.0 mph37.0 kmh 29.82 in1009.8 mb 0.00 in0.0 mm 0.00 in0.0 mm 0.00 in0.0 mm
12:57 AM 23.4°F-4.8°C 20.5°F-6.4°C 89% 13.0 mph NE20.9 kmh NE 24.0 mph38.6 kmh 29.82 in1009.8 mb 0.00 in0.0 mm 0.00 in0.0 mm 0.00 in0.0 mm
01:00 AM 23.4°F-4.8°C 20.3°F-6.5°C 88% 14.0 mph NE22.5 kmh NE 24.0 mph38.6 kmh 29.82 in1009.8 mb 0.00 in0.0 mm 0.00 in0.0 mm 0.00 in0.0 mm
01:03 AM 23.4°F-4.8°C 20.3°F-6.5°C 88% 14.0 mph NE22.5 kmh NE 24.0 mph38.6 kmh 29.82 in1009.8 mb 0.00 in0.0 mm 0.00 in0.0 mm 0.00 in0.0 mm
01:06 AM 23.4°F-4.8°C 20.3°F-6.5°C 88% 14.0 mph NE22.5 kmh NE 24.0 mph38.6 kmh 29.81 in1009.5 mb 0.00 in0.0 mm 0.00 in0.0 mm 0.00 in0.0 mm
01:09 AM 23.4°F-4.8°C 20.3°F-6.5°C 88% 12.0 mph NE19.3 kmh NE 24.0 mph38.6 kmh 29.81 in1009.5 mb 0.00 in0.0 mm 0.00 in0.0 mm 0.00 in0.0 mm
01:12 AM 23.4°F-4.8°C 20.3°F-6.5°C 88% 12.0 mph NE19.3 kmh NE 24.0 mph38.6 kmh 29.82 in1009.8 mb 0.00 in0.0 mm 0.00 in0.0 mm 0.00 in0.0 mm
01:15 AM 23.2°F-4.9°C 20.1°F-6.6°C 88% 11.0 mph NE17.7 kmh NE 23.0 mph37.0 kmh 29.82 in1009.8 mb 0.00 in0.0 mm 0.00 in0.0 mm 0.00 in0.0 mm
01:18 AM 23.2°F-4.9°C 20.1°F-6.6°C 88% 12.0 mph NE19.3 kmh NE 23.0 mph37.0 kmh 29.81 in1009.5 mb 0.00 in0.0 mm 0.00 in0.0 mm 0.00 in0.0 mm
01:21 AM 23.2°F-4.9°C 20.1°F-6.6°C 88% 13.0 mph NE20.9 kmh NE 26.0 mph41.8 kmh 29.82 in1009.8 mb 0.00 in0.0 mm 0.00 in0.0 mm 0.00 in0.0 mm
01:24 AM 23.2°F-4.9°C 20.1°F-6.6°C 88% 13.0 mph NE20.9 kmh NE 26.0 mph41.8 kmh 29.82 in1009.8 mb 0.00 in0.0 mm 0.00 in0.0 mm 0.00 in0.0 mm
01:27 AM 23.2°F-4.9°C 20.1°F-6.6°C 88% 13.0 mph NE20.9 kmh NE 26.0 mph41.8 kmh 29.82 in1009.8 mb 0.00 in0.0 mm 0.00 in0.0 mm 0.00 in0.0 mm
01:30 AM 23.2°F-4.9°C 20.1°F-6.6°C 88% 12.0 mph NE19.3 kmh NE 23.0 mph37.0 kmh 29.82 in1009.8 mb 0.00 in0.0 mm 0.00 in0.0 mm 0.00 in0.0 mm
01:33 AM 23.4°F-4.8°C 19.9°F-6.7°C 87% 11.0 mph NE17.7 kmh NE 23.0 mph37.0 kmh 29.82 in1009.8 mb 0.00 in0.0 mm 0.00 in0.0 mm 0.00 in0.0 mm
01:36 AM 23.4°F-4.8°C 19.9°F-6.7°C 87% 11.0 mph NE17.7 kmh NE 21.0 mph33.8 kmh 29.82 in1009.8 mb 0.00 in0.0 mm 0.00 in0.0 mm 0.00 in0.0 mm
01:39 AM 23.4°F-4.8°C 19.9°F-6.7°C 87% 11.0 mph NE17.7 kmh NE 21.0 mph33.8 kmh 29.81 in1009.5 mb 0.00 in0.0 mm 0.00 in0.0 mm 0.00 in0.0 mm
01:42 AM 23.2°F-4.9°C 19.9°F-6.7°C 87% 11.0 mph NE17.7 kmh NE 21.0 mph33.8 kmh 29.81 in1009.5 mb 0.00 in0.0 mm 0.00 in0.0 mm 0.00 in0.0 mm
01:45 AM 23.2°F-4.9°C 19.9°F-6.7°C 87% 10.0 mph NE16.1 kmh NE 21.0 mph33.8 kmh 29.81 in1009.5 mb 0.00 in0.0 mm 0.00 in0.0 mm 0.00 in0.0 mm
01:48 AM 23.2°F-4.9°C 19.9°F-6.7°C 87% 10.0 mph NE16.1 kmh NE 21.0 mph33.8 kmh 29.81 in1009.5 mb 0.00 in0.0 mm 0.00 in0.0 mm 0.00 in0.0 mm
01:51 AM 23.2°F-4.9°C 19.6°F-6.9°C 86% 10.0 mph NE16.1 kmh NE 19.0 mph30.6 kmh 29.81 in1009.5 mb 0.00 in0.0 mm 0.00 in0.0 mm 0.00 in0.0 mm
01:54 AM 23.0°F-5.0°C 19.4°F-7.0°C 86% 10.0 mph NE16.1 kmh NE 19.0 mph30.6 kmh 29.81 in1009.5 mb 0.00 in0.0 mm 0.00 in0.0 mm 0.00 in0.0 mm
01:57 AM 22.8°F-5.1°C 19.4°F-7.0°C 86% 9.0 mph NE14.5 kmh NE 17.0 mph27.4 kmh 29.80 in1009.1 mb 0.00 in0.0 mm 0.00 in0.0 mm 0.00 in0.0 mm
02:00 AM 22.6°F-5.2°C 19.2°F-7.1°C 86% 9.0 mph NE14.5 kmh NE 19.0 mph30.6 kmh 29.80 in1009.1 mb 0.00 in0.0 mm 0.00 in0.0 mm 0.00 in0.0 mm
02:03 AM 22.5°F-5.3°C 18.9°F-7.3°C 86% 10.0 mph NE16.1 kmh NE 19.0 mph30.6 kmh 29.80 in1009.1 mb 0.00 in0.0 mm 0.00 in0.0 mm 0.00 in0.0 mm
02:06 AM 22.3°F-5.4°C 18.5°F-7.5°C 85% 9.0 mph NE14.5 kmh NE 19.0 mph30.6 kmh 29.80 in1009.1 mb 0.00 in0.0 mm 0.00 in0.0 mm 0.00 in0.0 mm
02:09 AM 22.3°F-5.4°C 18.3°F-7.6°C 85% 11.0 mph NE17.7 kmh NE 19.0 mph30.6 kmh 29.80 in1009.1 mb 0.00 in0.0 mm 0.00 in0.0 mm 0.00 in0.0 mm
02:12 AM 22.1°F-5.5°C 18.3°F-7.6°C 85% 10.0 mph NE16.1 kmh NE 19.0 mph30.6 kmh 29.80 in1009.1 mb 0.00 in0.0 mm 0.00 in0.0 mm 0.00 in0.0 mm
02:15 AM 21.9°F-5.6°C 18.1°F-7.7°C 85% 10.0 mph NE16.1 kmh NE 19.0 mph30.6 kmh 29.80 in1009.1 mb 0.00 in0.0 mm 0.00 in0.0 mm 0.00 in0.0 mm
02:18 AM 21.9°F-5.6°C 18.1°F-7.7°C 85% 10.0 mph NE16.1 kmh NE 19.0 mph30.6 kmh 29.79 in1008.8 mb 0.00 in0.0 mm 0.00 in0.0 mm 0.00 in0.0 mm
02:21 AM 21.7°F-5.7°C 18.0°F-7.8°C 85% 10.0 mph NE16.1 kmh NE 19.0 mph30.6 kmh 29.79 in1008.8 mb 0.00 in0.0 mm 0.00 in0.0 mm 0.00 in0.0 mm
02:24 AM 21.9°F-5.6°C 18.1°F-7.7°C 85% 11.0 mph NE17.7 kmh NE 19.0 mph30.6 kmh 29.79 in1008.8 mb 0.00 in0.0 mm 0.00 in0.0 mm 0.00 in0.0 mm
02:27 AM 21.7°F-5.7°C 18.0°F-7.8°C 85% 10.0 mph NE16.1 kmh NE 19.0 mph30.6 kmh 29.79 in1008.8 mb 0.00 in0.0 mm 0.00 in0.0 mm 0.00 in0.0 mm
02:30 AM 21.7°F-5.7°C 18.0°F-7.8°C 85% 11.0 mph NE17.7 kmh NE 22.0 mph35.4 kmh 29.79 in1008.8 mb 0.00 in0.0 mm 0.00 in0.0 mm 0.00 in0.0 mm
02:33 AM 21.7°F-5.7°C 17.8°F-7.9°C 84% 11.0 mph NE17.7 kmh NE 22.0 mph35.4 kmh 29.78 in1008.5 mb 0.00 in0.0 mm 0.00 in0.0 mm 0.00 in0.0 mm
02:36 AM 21.9°F-5.6°C 17.8°F-7.9°C 84% 11.0 mph NE17.7 kmh NE 22.0 mph35.4 kmh 29.78 in1008.5 mb 0.00 in0.0 mm 0.00 in0.0 mm 0.00 in0.0 mm
02:39 AM 21.7°F-5.7°C 17.8°F-7.9°C 84% 11.0 mph NE17.7 kmh NE 21.0 mph33.8 kmh 29.78 in1008.5 mb 0.00 in0.0 mm 0.00 in0.0 mm 0.00 in0.0 mm
02:42 AM 21.7°F-5.7°C 17.6°F-8.0°C 84% 9.0 mph NE14.5 kmh NE 17.0 mph27.4 kmh 29.78 in1008.5 mb 0.00 in0.0 mm 0.00 in0.0 mm 0.00 in0.0 mm
02:45 AM 21.6°F-5.8°C 17.6°F-8.0°C 84% 10.0 mph NE16.1 kmh NE 17.0 mph27.4 kmh 29.78 in1008.5 mb 0.00 in0.0 mm 0.00 in0.0 mm 0.00 in0.0 mm
02:48 AM 21.6°F-5.8°C 17.6°F-8.0°C 84% 9.0 mph NE14.5 kmh NE 16.0 mph25.7 kmh 29.78 in1008.5 mb 0.00 in0.0 mm 0.00 in0.0 mm 0.00 in0.0 mm
02:51 AM 21.6°F-5.8°C 17.6°F-8.0°C 84% 10.0 mph NE16.1 kmh NE 19.0 mph30.6 kmh 29.78 in1008.5 mb 0.00 in0.0 mm 0.00 in0.0 mm 0.00 in0.0 mm
02:54 AM 21.6°F-5.8°C 17.8°F-7.9°C 85% 10.0 mph NE16.1 kmh NE 19.0 mph30.6 kmh 29.78 in1008.5 mb 0.00 in0.0 mm 0.00 in0.0 mm 0.00 in0.0 mm
02:57 AM 21.7°F-5.7°C 18.0°F-7.8°C 85% 10.0 mph NE16.1 kmh NE 19.0 mph30.6 kmh 29.78 in1008.5 mb 0.00 in0.0 mm 0.00 in0.0 mm 0.00 in0.0 mm
03:00 AM 21.7°F-5.7°C 18.0°F-7.8°C 85% 10.0 mph NE16.1 kmh NE 24.0 mph38.6 kmh 29.77 in1008.1 mb 0.00 in0.0 mm 0.00 in0.0 mm 0.00 in0.0 mm
03:03 AM 21.7°F-5.7°C 18.0°F-7.8°C 85% 11.0 mph NE17.7 kmh NE 24.0 mph38.6 kmh 29.77 in1008.1 mb 0.00 in0.0 mm 0.00 in0.0 mm 0.00 in0.0 mm
03:06 AM 21.7°F-5.7°C 18.0°F-7.8°C 85% 10.0 mph NE16.1 kmh NE 24.0 mph38.6 kmh 29.77 in1008.1 mb 0.00 in0.0 mm 0.00 in0.0 mm 0.00 in0.0 mm
03:09 AM 21.7°F-5.7°C 18.0°F-7.8°C 85% 10.0 mph NE16.1 kmh NE 19.0 mph30.6 kmh 29.77 in1008.1 mb 0.00 in0.0 mm 0.00 in0.0 mm 0.00 in0.0 mm
03:12 AM 21.7°F-5.7°C 18.0°F-7.8°C 85% 9.0 mph NE14.5 kmh NE 19.0 mph30.6 kmh 29.77 in1008.1 mb 0.00 in0.0 mm 0.00 in0.0 mm 0.00 in0.0 mm
03:15 AM 21.7°F-5.7°C 18.0°F-7.8°C 85% 9.0 mph NE14.5 kmh NE 21.0 mph33.8 kmh 29.77 in1008.1 mb 0.00 in0.0 mm 0.00 in0.0 mm 0.00 in0.0 mm
03:18 AM 21.7°F-5.7°C 18.0°F-7.8°C 85% 9.0 mph NE14.5 kmh NE 21.0 mph33.8 kmh 29.76 in1007.8 mb 0.00 in0.0 mm 0.00 in0.0 mm 0.00 in0.0 mm
03:21 AM 21.7°F-5.7°C 18.0°F-7.8°C 85% 9.0 mph NE14.5 kmh NE 21.0 mph33.8 kmh 29.76 in1007.8 mb 0.00 in0.0 mm 0.00 in0.0 mm 0.00 in0.0 mm
03:24 AM 21.7°F-5.7°C 18.0°F-7.8°C 85% 9.0 mph NE14.5 kmh NE 19.0 mph30.6 kmh 29.76 in1007.8 mb 0.00 in0.0 mm 0.00 in0.0 mm 0.00 in0.0 mm
03:27 AM 21.9°F-5.6°C 18.1°F-7.7°C 85% 9.0 mph NE14.5 kmh NE 19.0 mph30.6 kmh 29.76 in1007.8 mb 0.00 in0.0 mm 0.00 in0.0 mm 0.00 in0.0 mm
03:30 AM 21.9°F-5.6°C 18.1°F-7.7°C 85% 9.0 mph NE14.5 kmh NE 19.0 mph30.6 kmh 29.76 in1007.8 mb 0.00 in0.0 mm 0.00 in0.0 mm 0.00 in0.0 mm
03:33 AM 21.9°F-5.6°C 18.1°F-7.7°C 85% 9.0 mph NE14.5 kmh NE 20.0 mph32.2 kmh 29.76 in1007.8 mb 0.00 in0.0 mm 0.00 in0.0 mm 0.00 in0.0 mm
03:36 AM 21.9°F-5.6°C 18.1°F-7.7°C 85% 10.0 mph NE16.1 kmh NE 20.0 mph32.2 kmh 29.76 in1007.8 mb 0.00 in0.0 mm 0.00 in0.0 mm 0.00 in0.0 mm
03:39 AM 22.1°F-5.5°C 18.3°F-7.6°C 85% 10.0 mph NE16.1 kmh NE 20.0 mph32.2 kmh 29.76 in1007.8 mb 0.00 in0.0 mm 0.00 in0.0 mm 0.00 in0.0 mm
03:42 AM 22.1°F-5.5°C 18.5°F-7.5°C 86% 10.0 mph NE16.1 kmh NE 20.0 mph32.2 kmh 29.76 in1007.8 mb 0.00 in0.0 mm 0.00 in0.0 mm 0.00 in0.0 mm
03:45 AM 22.1°F-5.5°C 18.5°F-7.5°C 86% 9.0 mph NE14.5 kmh NE 19.0 mph30.6 kmh 29.75 in1007.5 mb 0.00 in0.0 mm 0.00 in0.0 mm 0.00 in0.0 mm
03:48 AM 22.3°F-5.4°C 18.7°F-7.4°C 86% 10.0 mph NE16.1 kmh NE 20.0 mph32.2 kmh 29.75 in1007.5 mb 0.00 in0.0 mm 0.00 in0.0 mm 0.00 in0.0 mm
03:51 AM 22.3°F-5.4°C 18.7°F-7.4°C 86% 10.0 mph NE16.1 kmh NE 20.0 mph32.2 kmh 29.75 in1007.5 mb 0.00 in0.0 mm 0.00 in0.0 mm 0.00 in0.0 mm
03:54 AM 22.5°F-5.3°C 18.9°F-7.3°C 86% 11.0 mph NE17.7 kmh NE 22.0 mph35.4 kmh 29.75 in1007.5 mb 0.00 in0.0 mm 0.00 in0.0 mm 0.00 in0.0 mm
03:57 AM 22.5°F-5.3°C 18.9°F-7.3°C 86% 10.0 mph NE16.1 kmh NE 22.0 mph35.4 kmh 29.74 in1007.1 mb 0.00 in0.0 mm 0.00 in0.0 mm 0.00 in0.0 mm
04:00 AM 22.5°F-5.3°C 18.9°F-7.3°C 86% 11.0 mph NE17.7 kmh NE 22.0 mph35.4 kmh 29.74 in1007.1 mb 0.00 in0.0 mm 0.00 in0.0 mm 0.00 in0.0 mm
04:03 AM 22.5°F-5.3°C 18.9°F-7.3°C 86% 10.0 mph NE16.1 kmh NE 22.0 mph35.4 kmh 29.74 in1007.1 mb 0.00 in0.0 mm 0.00 in0.0 mm 0.00 in0.0 mm
04:06 AM 22.6°F-5.2°C 19.0°F-7.2°C 86% 11.0 mph NNE17.7 kmh NNE 19.0 mph30.6 kmh 29.74 in1007.1 mb 0.00 in0.0 mm 0.00 in0.0 mm 0.00 in0.0 mm
04:09 AM 22.6°F-5.2°C 19.0°F-7.2°C 86% 11.0 mph NNE17.7 kmh NNE 19.0 mph30.6 kmh 29.74 in1007.1 mb 0.00 in0.0 mm 0.00 in0.0 mm 0.00 in0.0 mm
04:12 AM 22.6°F-5.2°C 19.0°F-7.2°C 86% 11.0 mph NNE17.7 kmh NNE 18.0 mph29.0 kmh 29.73 in1006.8 mb 0.00 in0.0 mm 0.00 in0.0 mm 0.00 in0.0 mm
04:15 AM 22.6°F-5.2°C 19.0°F-7.2°C 86% 11.0 mph NNE17.7 kmh NNE 18.0 mph29.0 kmh 29.73 in1006.8 mb 0.00 in0.0 mm 0.00 in0.0 mm 0.00 in0.0 mm
04:18 AM 22.6°F-5.2°C 19.2°F-7.1°C 86% 11.0 mph NNE17.7 kmh NNE 18.0 mph29.0 kmh 29.73 in1006.8 mb 0.00 in0.0 mm 0.00 in0.0 mm 0.00 in0.0 mm
04:21 AM 22.6°F-5.2°C 19.0°F-7.2°C 86% 10.0 mph NNE16.1 kmh NNE 18.0 mph29.0 kmh 29.74 in1007.1 mb 0.00 in0.0 mm 0.00 in0.0 mm 0.00 in0.0 mm
04:24 AM 22.6°F-5.2°C 19.4°F-7.0°C 87% 10.0 mph NNE16.1 kmh NNE 19.0 mph30.6 kmh 29.73 in1006.8 mb 0.00 in0.0 mm 0.00 in0.0 mm 0.00 in0.0 mm
04:27 AM 22.6°F-5.2°C 19.4°F-7.0°C 87% 10.0 mph NNE16.1 kmh NNE 19.0 mph30.6 kmh 29.73 in1006.8 mb 0.00 in0.0 mm 0.00 in0.0 mm 0.00 in0.0 mm
04:30 AM 22.6°F-5.2°C 19.4°F-7.0°C 87% 9.0 mph NNE14.5 kmh NNE 19.0 mph30.6 kmh 29.73 in1006.8 mb 0.00 in0.0 mm 0.00 in0.0 mm 0.00 in0.0 mm
04:33 AM 22.5°F-5.3°C 19.2°F-7.1°C 87% 9.0 mph NNE14.5 kmh NNE 17.0 mph27.4 kmh 29.73 in1006.8 mb 0.00 in0.0 mm 0.00 in0.0 mm 0.00 in0.0 mm
04:36 AM 22.5°F-5.3°C 19.2°F-7.1°C 87% 9.0 mph NE14.5 kmh NE 17.0 mph27.4 kmh 29.73 in1006.8 mb 0.00 in0.0 mm 0.00 in0.0 mm 0.00 in0.0 mm
04:39 AM 22.5°F-5.3°C 19.2°F-7.1°C 87% 10.0 mph NE16.1 kmh NE 17.0 mph27.4 kmh 29.72 in1006.4 mb 0.00 in0.0 mm 0.00 in0.0 mm 0.00 in0.0 mm
04:42 AM 22.5°F-5.3°C 19.2°F-7.1°C 87% 10.0 mph NE16.1 kmh NE 14.0 mph22.5 kmh 29.72 in1006.4 mb 0.00 in0.0 mm 0.00 in0.0 mm 0.00 in0.0 mm
04:45 AM 22.5°F-5.3°C 19.0°F-7.2°C 87% 10.0 mph NNE16.1 kmh NNE 20.0 mph32.2 kmh 29.72 in1006.4 mb 0.00 in0.0 mm 0.00 in0.0 mm 0.00 in0.0 mm
04:48 AM 22.5°F-5.3°C 19.0°F-7.2°C 87% 10.0 mph NNE16.1 kmh NNE 20.0 mph32.2 kmh 29.72 in1006.4 mb 0.00 in0.0 mm 0.00 in0.0 mm 0.00 in0.0 mm
04:51 AM 22.5°F-5.3°C 19.0°F-7.2°C 87% 11.0 mph NNE17.7 kmh NNE 20.0 mph32.2 kmh 29.72 in1006.4 mb 0.00 in0.0 mm 0.00 in0.0 mm 0.00 in0.0 mm
04:54 AM 22.5°F-5.3°C 19.0°F-7.2°C 87% 11.0 mph NE17.7 kmh NE 20.0 mph32.2 kmh 29.71 in1006.1 mb 0.00 in0.0 mm 0.00 in0.0 mm 0.00 in0.0 mm
04:57 AM 22.5°F-5.3°C 19.0°F-7.2°C 87% 11.0 mph NNE17.7 kmh NNE 20.0 mph32.2 kmh 29.71 in1006.1 mb 0.00 in0.0 mm 0.00 in0.0 mm 0.00 in0.0 mm
05:00 AM 22.5°F-5.3°C 19.0°F-7.2°C 87% 11.0 mph NNE17.7 kmh NNE 17.0 mph27.4 kmh 29.71 in1006.1 mb 0.00 in0.0 mm 0.00 in0.0 mm 0.00 in0.0 mm
05:03 AM 22.5°F-5.3°C 19.0°F-7.2°C 87% 11.0 mph NE17.7 kmh NE 23.0 mph37.0 kmh 29.71 in1006.1 mb 0.00 in0.0 mm 0.00 in0.0 mm 0.00 in0.0 mm
05:06 AM 22.5°F-5.3°C 19.2°F-7.1°C 87% 12.0 mph NE19.3 kmh NE 23.0 mph37.0 kmh 29.71 in1006.1 mb 0.00 in0.0 mm 0.00 in0.0 mm 0.00 in0.0 mm
05:09 AM 22.5°F-5.3°C 19.2°F-7.1°C 87% 12.0 mph NE19.3 kmh NE 23.0 mph37.0 kmh 29.71 in1006.1 mb 0.00 in0.0 mm 0.00 in0.0 mm 0.00 in0.0 mm
05:12 AM 22.6°F-5.2°C 19.4°F-7.0°C 87% 12.0 mph NE19.3 kmh NE 21.0 mph33.8 kmh 29.71 in1006.1 mb 0.00 in0.0 mm 0.00 in0.0 mm 0.00 in0.0 mm
05:15 AM 22.6°F-5.2°C 19.4°F-7.0°C 87% 12.0 mph NE19.3 kmh NE 21.0 mph33.8 kmh 29.70 in1005.8 mb 0.00 in0.0 mm 0.00 in0.0 mm 0.00 in0.0 mm
05:18 AM 22.6°F-5.2°C 19.4°F-7.0°C 87% 11.0 mph NE17.7 kmh NE 20.0 mph32.2 kmh 29.70 in1005.8 mb 0.00 in0.0 mm 0.00 in0.0 mm 0.00 in0.0 mm
05:21 AM 22.6°F-5.2°C 19.4°F-7.0°C 87% 11.0 mph NE17.7 kmh NE 20.0 mph32.2 kmh 29.70 in1005.8 mb 0.00 in0.0 mm 0.00 in0.0 mm 0.00 in0.0 mm
05:24 AM 22.6°F-5.2°C 19.4°F-7.0°C 87% 10.0 mph NNE16.1 kmh NNE 20.0 mph32.2 kmh 29.70 in1005.8 mb 0.00 in0.0 mm 0.00 in0.0 mm 0.00 in0.0 mm
05:27 AM 22.6°F-5.2°C 19.4°F-7.0°C 87% 10.0 mph NNE16.1 kmh NNE 20.0 mph32.2 kmh 29.70 in1005.8 mb 0.00 in0.0 mm 0.00 in0.0 mm 0.00 in0.0 mm
05:30 AM 22.6°F-5.2°C 19.4°F-7.0°C 87% 11.0 mph NNE17.7 kmh NNE 19.0 mph30.6 kmh 29.70 in1005.8 mb 0.00 in0.0 mm 0.00 in0.0 mm 0.00 in0.0 mm
05:33 AM 22.6°F-5.2°C 19.4°F-7.0°C 87% 11.0 mph NNE17.7 kmh NNE 22.0 mph35.4 kmh 29.70 in1005.8 mb 0.00 in0.0 mm 0.00 in0.0 mm 0.00 in0.0 mm
05:36 AM 22.6°F-5.2°C 19.4°F-7.0°C 87% 11.0 mph NNE17.7 kmh NNE 22.0 mph35.4 kmh 29.70 in1005.8 mb 0.00 in0.0 mm 0.00 in0.0 mm 0.00 in0.0 mm
05:39 AM 22.6°F-5.2°C 19.4°F-7.0°C 87% 11.0 mph NNE17.7 kmh NNE 22.0 mph35.4 kmh 29.70 in1005.8 mb 0.00 in0.0 mm 0.00 in0.0 mm 0.00 in0.0 mm
05:42 AM 22.6°F-5.2°C 19.4°F-7.0°C 87% 13.0 mph NNE20.9 kmh NNE 24.0 mph38.6 kmh 29.69 in1005.4 mb 0.00 in0.0 mm 0.00 in0.0 mm 0.00 in0.0 mm
05:45 AM 22.6°F-5.2°C 19.4°F-7.0°C 87% 13.0 mph NNE20.9 kmh NNE 24.0 mph38.6 kmh 29.69 in1005.4 mb 0.00 in0.0 mm 0.00 in0.0 mm 0.00 in0.0 mm
05:48 AM 22.6°F-5.2°C 19.4°F-7.0°C 87% 14.0 mph NE22.5 kmh NE 24.0 mph38.6 kmh 29.68 in1005.1 mb 0.00 in0.0 mm 0.00 in0.0 mm 0.00 in0.0 mm
05:51 AM 22.8°F-5.1°C 19.6°F-6.9°C 87% 13.0 mph NE20.9 kmh NE 23.0 mph37.0 kmh 29.69 in1005.4 mb 0.00 in0.0 mm 0.00 in0.0 mm 0.00 in0.0 mm
05:54 AM 22.8°F-5.1°C 19.6°F-6.9°C 87% 13.0 mph NE20.9 kmh NE 23.0 mph37.0 kmh 29.69 in1005.4 mb 0.00 in0.0 mm 0.00 in0.0 mm 0.00 in0.0 mm
05:57 AM 22.8°F-5.1°C 19.6°F-6.9°C 87% 14.0 mph NE22.5 kmh NE 27.0 mph43.5 kmh 29.69 in1005.4 mb 0.00 in0.0 mm 0.00 in0.0 mm 0.00 in0.0 mm
06:00 AM 22.8°F-5.1°C 19.6°F-6.9°C 87% 15.0 mph NE24.1 kmh NE 27.0 mph43.5 kmh 29.68 in1005.1 mb 0.00 in0.0 mm 0.00 in0.0 mm 0.00 in0.0 mm
06:03 AM 22.8°F-5.1°C 19.6°F-6.9°C 87% 15.0 mph NE24.1 kmh NE 27.0 mph43.5 kmh 29.68 in1005.1 mb 0.00 in0.0 mm 0.00 in0.0 mm 0.00 in0.0 mm
06:06 AM 22.8°F-5.1°C 19.6°F-6.9°C 87% 14.0 mph NE22.5 kmh NE 25.0 mph40.2 kmh 29.68 in1005.1 mb 0.00 in0.0 mm 0.00 in0.0 mm 0.00 in0.0 mm
06:09 AM 22.8°F-5.1°C 19.6°F-6.9°C 87% 14.0 mph NE22.5 kmh NE 25.0 mph40.2 kmh 29.68 in1005.1 mb 0.00 in0.0 mm 0.00 in0.0 mm 0.00 in0.0 mm
06:12 AM 22.8°F-5.1°C 19.6°F-6.9°C 87% 12.0 mph NE19.3 kmh NE 23.0 mph37.0 kmh 29.68 in1005.1 mb 0.00 in0.0 mm 0.00 in0.0 mm 0.00 in0.0 mm
06:15 AM 22.6°F-5.2°C 19.4°F-7.0°C 87% 12.0 mph NNE19.3 kmh NNE 23.0 mph37.0 kmh 29.68 in1005.1 mb 0.00 in0.0 mm 0.00 in0.0 mm 0.00 in0.0 mm
06:18 AM 22.6°F-5.2°C 19.4°F-7.0°C 87% 11.0 mph NNE17.7 kmh NNE 19.0 mph30.6 kmh 29.68 in1005.1 mb 0.00 in0.0 mm 0.00 in0.0 mm 0.00 in0.0 mm
06:21 AM 22.5°F-5.3°C 19.2°F-7.1°C 87% 12.0 mph NNE19.3 kmh NNE 21.0 mph33.8 kmh 29.68 in1005.1 mb 0.00 in0.0 mm 0.00 in0.0 mm 0.00 in0.0 mm
06:24 AM 22.5°F-5.3°C 19.0°F-7.2°C 87% 12.0 mph NNE19.3 kmh NNE 21.0 mph33.8 kmh 29.67 in1004.7 mb 0.00 in0.0 mm 0.00 in0.0 mm 0.00 in0.0 mm
06:27 AM 22.5°F-5.3°C 19.0°F-7.2°C 87% 12.0 mph NNE19.3 kmh NNE 21.0 mph33.8 kmh 29.67 in1004.7 mb 0.00 in0.0 mm 0.00 in0.0 mm 0.00 in0.0 mm
06:30 AM 22.5°F-5.3°C 19.0°F-7.2°C 87% 12.0 mph NNE19.3 kmh NNE 21.0 mph33.8 kmh 29.67 in1004.7 mb 0.00 in0.0 mm 0.00 in0.0 mm 0.00 in0.0 mm
06:33 AM 22.5°F-5.3°C 19.0°F-7.2°C 87% 12.0 mph NNE19.3 kmh NNE 21.0 mph33.8 kmh 29.67 in1004.7 mb 0.00 in0.0 mm 0.00 in0.0 mm 0.00 in0.0 mm
06:36 AM 22.5°F-5.3°C 19.0°F-7.2°C 87% 12.0 mph NNE19.3 kmh NNE 21.0 mph33.8 kmh 29.66 in1004.4 mb 0.00 in0.0 mm 0.00 in0.0 mm 0.00 in0.0 mm
06:39 AM 22.5°F-5.3°C 19.0°F-7.2°C 87% 12.0 mph NNE19.3 kmh NNE 21.0 mph33.8 kmh 29.66 in1004.4 mb 0.00 in0.0 mm 0.00 in0.0 mm 0.00 in0.0 mm
06:42 AM 22.5°F-5.3°C 18.9°F-7.3°C 86% 11.0 mph NNE17.7 kmh NNE 20.0 mph32.2 kmh 29.66 in1004.4 mb 0.00 in0.0 mm 0.00 in0.0 mm 0.00 in0.0 mm
06:45 AM 22.5°F-5.3°C 18.9°F-7.3°C 86% 11.0 mph NNE17.7 kmh NNE 23.0 mph37.0 kmh 29.66 in1004.4 mb 0.00 in0.0 mm 0.00 in0.0 mm 0.00 in0.0 mm
06:48 AM 22.5°F-5.3°C 18.7°F-7.4°C 85% 12.0 mph NNE19.3 kmh NNE 23.0 mph37.0 kmh 29.66 in1004.4 mb 0.00 in0.0 mm 0.00 in0.0 mm 0.00 in0.0 mm
06:51 AM 22.5°F-5.3°C 18.7°F-7.4°C 85% 12.0 mph NNE19.3 kmh NNE 23.0 mph37.0 kmh 29.66 in1004.4 mb 0.00 in0.0 mm 0.00 in0.0 mm 0.00 in0.0 mm
06:54 AM 22.5°F-5.3°C 18.7°F-7.4°C 85% 11.0 mph NE17.7 kmh NE 23.0 mph37.0 kmh 29.66 in1004.4 mb 0.00 in0.0 mm 0.00 in0.0 mm 0.00 in0.0 mm
06:57 AM 22.5°F-5.3°C 18.7°F-7.4°C 85% 11.0 mph NNE17.7 kmh NNE 22.0 mph35.4 kmh 29.66 in1004.4 mb 0.00 in0.0 mm 0.00 in0.0 mm 0.00 in0.0 mm
07:00 AM 22.5°F-5.3°C 18.7°F-7.4°C 85% 10.0 mph NE16.1 kmh NE 22.0 mph35.4 kmh 29.66 in1004.4 mb 0.00 in0.0 mm 0.00 in0.0 mm 0.00 in0.0 mm
07:03 AM 22.5°F-5.3°C 18.7°F-7.4°C 85% 11.0 mph NE17.7 kmh NE 19.0 mph30.6 kmh 29.66 in1004.4 mb 0.00 in0.0 mm 0.00 in0.0 mm 0.00 in0.0 mm
07:06 AM 22.5°F-5.3°C 18.7°F-7.4°C 85% 11.0 mph NE17.7 kmh NE 21.0 mph33.8 kmh 29.66 in1004.4 mb 0.00 in0.0 mm 0.00 in0.0 mm 0.00 in0.0 mm
07:09 AM 22.5°F-5.3°C 18.7°F-7.4°C 85% 12.0 mph NE19.3 kmh NE 24.0 mph38.6 kmh 29.66 in1004.4 mb 0.00 in0.0 mm 0.00 in0.0 mm 0.00 in0.0 mm
07:12 AM 22.6°F-5.2°C 18.9°F-7.3°C 85% 12.0 mph NE19.3 kmh NE 24.0 mph38.6 kmh 29.66 in1004.4 mb 0.00 in0.0 mm 0.00 in0.0 mm 0.00 in0.0 mm
07:15 AM 22.5°F-5.3°C 18.7°F-7.4°C 85% 12.0 mph NE19.3 kmh NE 24.0 mph38.6 kmh 29.66 in1004.4 mb 0.00 in0.0 mm 0.00 in0.0 mm 0.00 in0.0 mm
07:18 AM 22.5°F-5.3°C 18.7°F-7.4°C 85% 12.0 mph NE19.3 kmh NE 19.0 mph30.6 kmh 29.65 in1004.1 mb 0.00 in0.0 mm 0.00 in0.0 mm 0.00 in0.0 mm
07:21 AM 22.5°F-5.3°C 18.7°F-7.4°C 85% 11.0 mph NE17.7 kmh NE 19.0 mph30.6 kmh 29.66 in1004.4 mb 0.00 in0.0 mm 0.00 in0.0 mm 0.00 in0.0 mm
07:24 AM 22.5°F-5.3°C 18.9°F-7.3°C 86% 11.0 mph NE17.7 kmh NE 19.0 mph30.6 kmh 29.65 in1004.1 mb 0.00 in0.0 mm 0.00 in0.0 mm 0.00 in0.0 mm
07:27 AM 22.5°F-5.3°C 18.9°F-7.3°C 86% 10.0 mph NE16.1 kmh NE 18.0 mph29.0 kmh 29.65 in1004.1 mb 0.00 in0.0 mm 0.00 in0.0 mm 0.00 in0.0 mm
07:30 AM 22.5°F-5.3°C 18.9°F-7.3°C 86% 10.0 mph NE16.1 kmh NE 18.0 mph29.0 kmh 29.65 in1004.1 mb 0.00 in0.0 mm 0.00 in0.0 mm 0.00 in0.0 mm
07:33 AM 22.5°F-5.3°C 18.9°F-7.3°C 86% 10.0 mph NE16.1 kmh NE 18.0 mph29.0 kmh 29.65 in1004.1 mb 0.00 in0.0 mm 0.00 in0.0 mm 0.00 in0.0 mm
07:36 AM 22.3°F-5.4°C 18.7°F-7.4°C 86% 10.0 mph NE16.1 kmh NE 18.0 mph29.0 kmh 29.65 in1004.1 mb 0.00 in0.0 mm 0.00 in0.0 mm 0.00 in0.0 mm
07:39 AM 22.3°F-5.4°C 18.7°F-7.4°C 86% 10.0 mph NNE16.1 kmh NNE 18.0 mph29.0 kmh 29.65 in1004.1 mb 0.00 in0.0 mm 0.00 in0.0 mm 0.00 in0.0 mm
07:42 AM 22.1°F-5.5°C 18.5°F-7.5°C 86% 10.0 mph NNE16.1 kmh NNE 18.0 mph29.0 kmh 29.64 in1003.7 mb 0.00 in0.0 mm 0.00 in0.0 mm 0.00 in0.0 mm
07:45 AM 22.1°F-5.5°C 18.3°F-7.6°C 85% 10.0 mph NNE16.1 kmh NNE 17.0 mph27.4 kmh 29.64 in1003.7 mb 0.00 in0.0 mm 0.00 in0.0 mm 0.00 in0.0 mm
07:48 AM 22.1°F-5.5°C 18.5°F-7.5°C 86% 10.0 mph NNE16.1 kmh NNE 17.0 mph27.4 kmh 29.64 in1003.7 mb 0.00 in0.0 mm 0.00 in0.0 mm 0.00 in0.0 mm
07:51 AM 22.1°F-5.5°C 18.5°F-7.5°C 86% 11.0 mph NNE17.7 kmh NNE 22.0 mph35.4 kmh 29.64 in1003.7 mb 0.00 in0.0 mm 0.00 in0.0 mm 0.00 in0.0 mm
07:54 AM 22.3°F-5.4°C 18.7°F-7.4°C 86% 11.0 mph NNE17.7 kmh NNE 22.0 mph35.4 kmh 29.64 in1003.7 mb 0.00 in0.0 mm 0.00 in0.0 mm 0.00 in0.0 mm
07:57 AM 22.3°F-5.4°C 18.7°F-7.4°C 86% 12.0 mph NNE19.3 kmh NNE 22.0 mph35.4 kmh 29.64 in1003.7 mb 0.00 in0.0 mm 0.00 in0.0 mm 0.00 in0.0 mm
08:00 AM 22.5°F-5.3°C 18.9°F-7.3°C 86% 11.0 mph NNE17.7 kmh NNE 21.0 mph33.8 kmh 29.64 in1003.7 mb 0.00 in0.0 mm 0.00 in0.0 mm 0.00 in0.0 mm
08:03 AM 22.5°F-5.3°C 18.9°F-7.3°C 86% 11.0 mph NNE17.7 kmh NNE 21.0 mph33.8 kmh 29.64 in1003.7 mb 0.00 in0.0 mm 0.00 in0.0 mm 0.00 in0.0 mm
08:06 AM 22.6°F-5.2°C 18.9°F-7.3°C 85% 12.0 mph NE19.3 kmh NE 20.0 mph32.2 kmh 29.64 in1003.7 mb 0.00 in0.0 mm 0.00 in0.0 mm 0.00 in0.0 mm
08:09 AM 22.6°F-5.2°C 18.9°F-7.3°C 85% 13.0 mph NE20.9 kmh NE 22.0 mph35.4 kmh 29.64 in1003.7 mb 0.00 in0.0 mm 0.00 in0.0 mm 0.00 in0.0 mm
08:12 AM 22.8°F-5.1°C 19.2°F-7.1°C 86% 14.0 mph NE22.5 kmh NE 23.0 mph37.0 kmh 29.63 in1003.4 mb 0.00 in0.0 mm 0.00 in0.0 mm 0.00 in0.0 mm
08:15 AM 22.8°F-5.1°C 19.2°F-7.1°C 86% 13.0 mph NE20.9 kmh NE 23.0 mph37.0 kmh 29.64 in1003.7 mb 0.00 in0.0 mm 0.00 in0.0 mm 0.00 in0.0 mm
08:18 AM 22.8°F-5.1°C 19.4°F-7.0°C 86% 13.0 mph NE20.9 kmh NE 23.0 mph37.0 kmh 29.63 in1003.4 mb 0.00 in0.0 mm 0.00 in0.0 mm 0.00 in0.0 mm
08:21 AM 23.0°F-5.0°C 19.4°F-7.0°C 86% 13.0 mph NE20.9 kmh NE 20.0 mph32.2 kmh 29.63 in1003.4 mb 0.00 in0.0 mm 0.00 in0.0 mm 0.00 in0.0 mm
08:24 AM 23.2°F-4.9°C 19.2°F-7.1°C 85% 14.0 mph NE22.5 kmh NE 24.0 mph38.6 kmh 29.63 in1003.4 mb 0.00 in0.0 mm 0.00 in0.0 mm 0.00 in0.0 mm
08:27 AM 23.2°F-4.9°C 19.2°F-7.1°C 85% 14.0 mph NE22.5 kmh NE 24.0 mph38.6 kmh 29.63 in1003.4 mb 0.00 in0.0 mm 0.00 in0.0 mm 0.00 in0.0 mm
08:30 AM 23.2°F-4.9°C 19.4°F-7.0°C 85% 13.0 mph NE20.9 kmh NE 24.0 mph38.6 kmh 29.63 in1003.4 mb 0.00 in0.0 mm 0.00 in0.0 mm 0.00 in0.0 mm
08:33 AM 23.2°F-4.9°C 19.4°F-7.0°C 85% 12.0 mph NE19.3 kmh NE 21.0 mph33.8 kmh 29.62 in1003.0 mb 0.00 in0.0 mm 0.00 in0.0 mm 0.00 in0.0 mm
08:36 AM 23.2°F-4.9°C 19.4°F-7.0°C 85% 11.0 mph NE17.7 kmh NE 22.0 mph35.4 kmh 29.62 in1003.0 mb 0.00 in0.0 mm 0.00 in0.0 mm 0.00 in0.0 mm
08:39 AM 23.4°F-4.8°C 19.8°F-6.8°C 86% 12.0 mph NE19.3 kmh NE 23.0 mph37.0 kmh 29.62 in1003.0 mb 0.00 in0.0 mm 0.00 in0.0 mm 0.00 in0.0 mm
08:42 AM 23.4°F-4.8°C 19.8°F-6.8°C 86% 12.0 mph NE19.3 kmh NE 23.0 mph37.0 kmh 29.62 in1003.0 mb 0.00 in0.0 mm 0.00 in0.0 mm 0.00 in0.0 mm
08:45 AM 23.5°F-4.7°C 19.9°F-6.7°C 86% 12.0 mph NE19.3 kmh NE 26.0 mph41.8 kmh 29.62 in1003.0 mb 0.00 in0.0 mm 0.00 in0.0 mm 0.00 in0.0 mm
08:48 AM 23.5°F-4.7°C 19.9°F-6.7°C 86% 12.0 mph NE19.3 kmh NE 26.0 mph41.8 kmh 29.62 in1003.0 mb 0.00 in0.0 mm 0.00 in0.0 mm 0.00 in0.0 mm
08:51 AM 23.5°F-4.7°C 19.9°F-6.7°C 86% 12.0 mph NE19.3 kmh NE 26.0 mph41.8 kmh 29.61 in1002.7 mb 0.00 in0.0 mm 0.00 in0.0 mm 0.00 in0.0 mm
08:54 AM 23.5°F-4.7°C 19.8°F-6.8°C 85% 12.0 mph NE19.3 kmh NE 21.0 mph33.8 kmh 29.61 in1002.7 mb 0.00 in0.0 mm 0.00 in0.0 mm 0.00 in0.0 mm
08:57 AM 23.5°F-4.7°C 19.6°F-6.9°C 85% 11.0 mph NE17.7 kmh NE 21.0 mph33.8 kmh 29.61 in1002.7 mb 0.00 in0.0 mm 0.00 in0.0 mm 0.00 in0.0 mm
09:00 AM 23.5°F-4.7°C 19.8°F-6.8°C 85% 11.0 mph NE17.7 kmh NE 20.0 mph32.2 kmh 29.61 in1002.7 mb 0.00 in0.0 mm 0.00 in0.0 mm 0.00 in0.0 mm
09:03 AM 23.5°F-4.7°C 21.6°F-5.8°C 92% 11.0 mph NE17.7 kmh NE 19.0 mph30.6 kmh 29.61 in1002.7 mb 0.00 in0.0 mm 0.00 in0.0 mm 0.00 in0.0 mm
09:06 AM 23.7°F-4.6°C 19.9°F-6.7°C 85% 12.0 mph NNE19.3 kmh NNE 20.0 mph32.2 kmh 29.61 in1002.7 mb 0.00 in0.0 mm 0.00 in0.0 mm 0.00 in0.0 mm
09:09 AM 23.7°F-4.6°C 19.9°F-6.7°C 85% 11.0 mph NE17.7 kmh NE 20.0 mph32.2 kmh 29.61 in1002.7 mb 0.00 in0.0 mm 0.00 in0.0 mm 0.00 in0.0 mm
09:12 AM 23.7°F-4.6°C 19.9°F-6.7°C 85% 12.0 mph NNE19.3 kmh NNE 21.0 mph33.8 kmh 29.60 in1002.4 mb 0.00 in0.0 mm 0.00 in0.0 mm 0.00 in0.0 mm
09:15 AM 23.9°F-4.5°C 20.1°F-6.6°C 85% 12.0 mph NNE19.3 kmh NNE 22.0 mph35.4 kmh 29.60 in1002.4 mb 0.00 in0.0 mm 0.00 in0.0 mm 0.00 in0.0 mm
09:18 AM 24.1°F-4.4°C 20.1°F-6.6°C 85% 13.0 mph NE20.9 kmh NE 22.0 mph35.4 kmh 29.60 in1002.4 mb 0.00 in0.0 mm 0.00 in0.0 mm 0.00 in0.0 mm
09:21 AM 24.1°F-4.4°C 20.1°F-6.6°C 85% 12.0 mph NE19.3 kmh NE 22.0 mph35.4 kmh 29.60 in1002.4 mb 0.00 in0.0 mm 0.00 in0.0 mm 0.00 in0.0 mm
09:24 AM 24.1°F-4.4°C 20.1°F-6.6°C 85% 12.0 mph NE19.3 kmh NE 20.0 mph32.2 kmh 29.60 in1002.4 mb 0.00 in0.0 mm 0.00 in0.0 mm 0.00 in0.0 mm
09:27 AM 24.1°F-4.4°C 20.1°F-6.6°C 85% 12.0 mph NE19.3 kmh NE 23.0 mph37.0 kmh 29.60 in1002.4 mb 0.00 in0.0 mm 0.00 in0.0 mm 0.00 in0.0 mm
09:30 AM 24.1°F-4.4°C 20.3°F-6.5°C 85% 13.0 mph NE20.9 kmh NE 23.0 mph37.0 kmh 29.60 in1002.4 mb 0.00 in0.0 mm 0.00 in0.0 mm 0.00 in0.0 mm
09:33 AM 24.1°F-4.4°C 20.3°F-6.5°C 85% 14.0 mph NE22.5 kmh NE 25.0 mph40.2 kmh 29.60 in1002.4 mb 0.00 in0.0 mm 0.00 in0.0 mm 0.00 in0.0 mm
09:36 AM 24.1°F-4.4°C 20.3°F-6.5°C 85% 14.0 mph NE22.5 kmh NE 25.0 mph40.2 kmh 29.60 in1002.4 mb 0.00 in0.0 mm 0.00 in0.0 mm 0.00 in0.0 mm
09:39 AM 24.3°F-4.3°C 20.3°F-6.5°C 85% 14.0 mph NE22.5 kmh NE 25.0 mph40.2 kmh 29.60 in1002.4 mb 0.00 in0.0 mm 0.00 in0.0 mm 0.00 in0.0 mm
09:42 AM 24.3°F-4.3°C 20.3°F-6.5°C 85% 13.0 mph NE20.9 kmh NE 22.0 mph35.4 kmh 29.59 in1002.0 mb 0.00 in0.0 mm 0.00 in0.0 mm 0.00 in0.0 mm
09:45 AM 24.3°F-4.3°C 20.5°F-6.4°C 85% 13.0 mph NE20.9 kmh NE 22.0 mph35.4 kmh 29.59 in1002.0 mb 0.00 in0.0 mm 0.00 in0.0 mm 0.00 in0.0 mm
09:48 AM 24.4°F-4.2°C 20.5°F-6.4°C 85% 12.0 mph NE19.3 kmh NE 25.0 mph40.2 kmh 29.59 in1002.0 mb 0.00 in0.0 mm 0.00 in0.0 mm 0.00 in0.0 mm
09:51 AM 24.4°F-4.2°C 20.3°F-6.5°C 84% 12.0 mph NE19.3 kmh NE 25.0 mph40.2 kmh 29.58 in1001.7 mb 0.00 in0.0 mm 0.00 in0.0 mm 0.00 in0.0 mm
09:54 AM 24.4°F-4.2°C 20.3°F-6.5°C 84% 13.0 mph NE20.9 kmh NE 25.0 mph40.2 kmh 29.58 in1001.7 mb 0.00 in0.0 mm 0.00 in0.0 mm 0.00 in0.0 mm
09:57 AM 24.6°F-4.1°C 20.5°F-6.4°C 84% 14.0 mph NE22.5 kmh NE 26.0 mph41.8 kmh 29.58 in1001.7 mb 0.00 in0.0 mm 0.00 in0.0 mm 0.00 in0.0 mm
10:00 AM 24.6°F-4.1°C 20.5°F-6.4°C 84% 15.0 mph NE24.1 kmh NE 26.0 mph41.8 kmh 29.58 in1001.7 mb 0.00 in0.0 mm 0.00 in0.0 mm 0.00 in0.0 mm
10:03 AM 25.0°F-3.9°C 20.8°F-6.2°C 84% 14.0 mph NE22.5 kmh NE 26.0 mph41.8 kmh 29.58 in1001.7 mb 0.00 in0.0 mm 0.00 in0.0 mm 0.00 in0.0 mm
10:06 AM 25.0°F-3.9°C 20.8°F-6.2°C 84% 13.0 mph NE20.9 kmh NE 23.0 mph37.0 kmh 29.58 in1001.7 mb 0.00 in0.0 mm 0.00 in0.0 mm 0.00 in0.0 mm
10:09 AM 25.2°F-3.8°C 21.0°F-6.1°C 84% 11.0 mph NNE17.7 kmh NNE 21.0 mph33.8 kmh 29.58 in1001.7 mb 0.00 in0.0 mm 0.00 in0.0 mm 0.00 in0.0 mm
10:12 AM 25.3°F-3.7°C 21.2°F-6.0°C 84% 12.0 mph NE19.3 kmh NE 21.0 mph33.8 kmh 29.58 in1001.7 mb 0.00 in0.0 mm 0.00 in0.0 mm 0.00 in0.0 mm
10:15 AM 25.3°F-3.7°C 21.2°F-6.0°C 84% 12.0 mph NE19.3 kmh NE 21.0 mph33.8 kmh 29.58 in1001.7 mb 0.00 in0.0 mm 0.00 in0.0 mm 0.00 in0.0 mm
10:18 AM 25.3°F-3.7°C 21.2°F-6.0°C 84% 11.0 mph NE17.7 kmh NE 19.0 mph30.6 kmh 29.57 in1001.4 mb 0.00 in0.0 mm 0.00 in0.0 mm 0.00 in0.0 mm
10:21 AM 25.5°F-3.6°C 21.4°F-5.9°C 84% 12.0 mph NE19.3 kmh NE 19.0 mph30.6 kmh 29.57 in1001.4 mb 0.00 in0.0 mm 0.00 in0.0 mm 0.00 in0.0 mm
10:24 AM 25.5°F-3.6°C 21.4°F-5.9°C 84% 12.0 mph NE19.3 kmh NE 24.0 mph38.6 kmh 29.57 in1001.4 mb 0.00 in0.0 mm 0.00 in0.0 mm 0.00 in0.0 mm
10:27 AM 25.5°F-3.6°C 21.4°F-5.9°C 84% 13.0 mph NE20.9 kmh NE 24.0 mph38.6 kmh 29.57 in1001.4 mb 0.00 in0.0 mm 0.00 in0.0 mm 0.00 in0.0 mm
10:30 AM 25.9°F-3.4°C 21.6°F-5.8°C 84% 14.0 mph NE22.5 kmh NE 24.0 mph38.6 kmh 29.57 in1001.4 mb 0.00 in0.0 mm 0.00 in0.0 mm 0.00 in0.0 mm
10:33 AM 26.1°F-3.3°C 21.7°F-5.7°C 84% 14.0 mph NE22.5 kmh NE 26.0 mph41.8 kmh 29.56 in1001.0 mb 0.00 in0.0 mm 0.00 in0.0 mm 0.00 in0.0 mm
10:36 AM 26.1°F-3.3°C 21.7°F-5.7°C 84% 14.0 mph NE22.5 kmh NE 26.0 mph41.8 kmh 29.56 in1001.0 mb 0.00 in0.0 mm 0.00 in0.0 mm 0.00 in0.0 mm
10:39 AM 26.1°F-3.3°C 21.9°F-5.6°C 84% 14.0 mph NE22.5 kmh NE 26.0 mph41.8 kmh 29.56 in1001.0 mb 0.00 in0.0 mm 0.00 in0.0 mm 0.00 in0.0 mm
10:42 AM 26.1°F-3.3°C 21.7°F-5.7°C 84% 13.0 mph NE20.9 kmh NE 26.0 mph41.8 kmh 29.56 in1001.0 mb 0.00 in0.0 mm 0.00 in0.0 mm 0.00 in0.0 mm
10:45 AM 26.1°F-3.3°C 21.7°F-5.7°C 84% 12.0 mph NNE19.3 kmh NNE 22.0 mph35.4 kmh 29.56 in1001.0 mb 0.00 in0.0 mm 0.00 in0.0 mm 0.00 in0.0 mm
10:48 AM 26.1°F-3.3°C 21.7°F-5.7°C 84% 12.0 mph NNE19.3 kmh NNE 22.0 mph35.4 kmh 29.55 in1000.7 mb 0.00 in0.0 mm 0.00 in0.0 mm 0.00 in0.0 mm
10:51 AM 26.1°F-3.3°C 21.7°F-5.7°C 84% 12.0 mph NE19.3 kmh NE 22.0 mph35.4 kmh 29.55 in1000.7 mb 0.00 in0.0 mm 0.00 in0.0 mm 0.00 in0.0 mm
10:54 AM 26.1°F-3.3°C 21.7°F-5.7°C 84% 13.0 mph NE20.9 kmh NE 24.0 mph38.6 kmh 29.55 in1000.7 mb 0.00 in0.0 mm 0.00 in0.0 mm 0.00 in0.0 mm
10:57 AM 26.1°F-3.3°C 21.9°F-5.6°C 84% 12.0 mph NE19.3 kmh NE 24.0 mph38.6 kmh 29.55 in1000.7 mb 0.00 in0.0 mm 0.00 in0.0 mm 0.00 in0.0 mm
11:00 AM 26.1°F-3.3°C 21.9°F-5.6°C 84% 12.0 mph NE19.3 kmh NE 24.0 mph38.6 kmh 29.55 in1000.7 mb 0.00 in0.0 mm 0.00 in0.0 mm 0.00 in0.0 mm
11:03 AM 26.2°F-3.2°C 22.3°F-5.4°C 85% 11.0 mph NE17.7 kmh NE 24.0 mph38.6 kmh 29.55 in1000.7 mb 0.00 in0.0 mm 0.00 in0.0 mm 0.00 in0.0 mm
11:06 AM 26.2°F-3.2°C 22.1°F-5.5°C 84% 10.0 mph NE16.1 kmh NE 23.0 mph37.0 kmh 29.55 in1000.7 mb 0.00 in0.0 mm 0.00 in0.0 mm 0.00 in0.0 mm
11:09 AM 26.4°F-3.1°C 22.3°F-5.4°C 84% 9.0 mph NE14.5 kmh NE 17.0 mph27.4 kmh 29.55 in1000.7 mb 0.00 in0.0 mm 0.00 in0.0 mm 0.00 in0.0 mm
11:12 AM 26.4°F-3.1°C 22.6°F-5.2°C 85% 10.0 mph NE16.1 kmh NE 21.0 mph33.8 kmh 29.55 in1000.7 mb 0.00 in0.0 mm 0.00 in0.0 mm 0.00 in0.0 mm
11:15 AM 26.8°F-2.9°C 22.5°F-5.3°C 84% 11.0 mph NE17.7 kmh NE 22.0 mph35.4 kmh 29.54 in1000.3 mb 0.00 in0.0 mm 0.00 in0.0 mm 0.00 in0.0 mm
11:18 AM 27.0°F-2.8°C 22.6°F-5.2°C 84% 13.0 mph NE20.9 kmh NE 26.0 mph41.8 kmh 29.54 in1000.3 mb 0.00 in0.0 mm 0.00 in0.0 mm 0.00 in0.0 mm
11:21 AM 27.0°F-2.8°C 22.8°F-5.1°C 84% 14.0 mph NE22.5 kmh NE 26.0 mph41.8 kmh 29.54 in1000.3 mb 0.00 in0.0 mm 0.00 in0.0 mm 0.00 in0.0 mm
11:24 AM 27.1°F-2.7°C 22.6°F-5.2°C 83% 14.0 mph NE22.5 kmh NE 26.0 mph41.8 kmh 29.54 in1000.3 mb 0.00 in0.0 mm 0.00 in0.0 mm 0.00 in0.0 mm
11:27 AM 27.3°F-2.6°C 22.8°F-5.1°C 83% 15.0 mph NE24.1 kmh NE 30.0 mph48.3 kmh 29.54 in1000.3 mb 0.00 in0.0 mm 0.00 in0.0 mm 0.00 in0.0 mm
11:30 AM 27.5°F-2.5°C 23.0°F-5.0°C 83% 15.0 mph NE24.1 kmh NE 30.0 mph48.3 kmh 29.54 in1000.3 mb 0.00 in0.0 mm 0.00 in0.0 mm 0.00 in0.0 mm
11:33 AM 27.7°F-2.4°C 23.2°F-4.9°C 83% 13.0 mph NE20.9 kmh NE 30.0 mph48.3 kmh 29.54 in1000.3 mb 0.00 in0.0 mm 0.00 in0.0 mm 0.00 in0.0 mm
11:36 AM 27.9°F-2.3°C 23.4°F-4.8°C 83% 13.0 mph NE20.9 kmh NE 26.0 mph41.8 kmh 29.54 in1000.3 mb 0.00 in0.0 mm 0.00 in0.0 mm 0.00 in0.0 mm
11:39 AM 27.9°F-2.3°C 23.2°F-4.9°C 82% 13.0 mph NE20.9 kmh NE 25.0 mph40.2 kmh 29.54 in1000.3 mb 0.00 in0.0 mm 0.00 in0.0 mm 0.00 in0.0 mm
11:42 AM 27.9°F-2.3°C 23.0°F-5.0°C 82% 15.0 mph NE24.1 kmh NE 27.0 mph43.5 kmh 29.54 in1000.3 mb 0.00 in0.0 mm 0.00 in0.0 mm 0.00 in0.0 mm
11:45 AM 27.9°F-2.3°C 23.0°F-5.0°C 82% 15.0 mph NE24.1 kmh NE 27.0 mph43.5 kmh 29.53 in1000.0 mb 0.00 in0.0 mm 0.00 in0.0 mm 0.00 in0.0 mm
11:48 AM 27.9°F-2.3°C 23.0°F-5.0°C 82% 15.0 mph NE24.1 kmh NE 27.0 mph43.5 kmh 29.53 in1000.0 mb 0.00 in0.0 mm 0.00 in0.0 mm 0.00 in0.0 mm
11:51 AM 27.9°F-2.3°C 23.0°F-5.0°C 82% 14.0 mph NE22.5 kmh NE 24.0 mph38.6 kmh 29.53 in1000.0 mb 0.00 in0.0 mm 0.00 in0.0 mm 0.00 in0.0 mm
11:54 AM 27.7°F-2.4°C 23.0°F-5.0°C 82% 13.0 mph NE20.9 kmh NE 24.0 mph38.6 kmh 29.53 in1000.0 mb 0.00 in0.0 mm 0.00 in0.0 mm 0.00 in0.0 mm
11:57 AM 27.7°F-2.4°C 23.0°F-5.0°C 82% 13.0 mph NE20.9 kmh NE 23.0 mph37.0 kmh 29.53 in1000.0 mb 0.00 in0.0 mm 0.00 in0.0 mm 0.00 in0.0 mm
12:00 PM 27.7°F-2.4°C 22.8°F-5.1°C 82% 13.0 mph NE20.9 kmh NE 23.0 mph37.0 kmh 29.53 in1000.0 mb 0.00 in0.0 mm 0.00 in0.0 mm 0.00 in0.0 mm
12:03 PM 27.7°F-2.4°C 22.8°F-5.1°C 82% 13.0 mph NE20.9 kmh NE 23.0 mph37.0 kmh 29.52 in999.7 mb 0.00 in0.0 mm 0.00 in0.0 mm 0.00 in0.0 mm
12:06 PM 27.5°F-2.5°C 22.6°F-5.2°C 82% 12.0 mph NE19.3 kmh NE 23.0 mph37.0 kmh 29.52 in999.7 mb 0.00 in0.0 mm 0.00 in0.0 mm 0.00 in0.0 mm
12:09 PM 27.5°F-2.5°C 23.0°F-5.0°C 83% 12.0 mph NE19.3 kmh NE 21.0 mph33.8 kmh 29.52 in999.7 mb 0.00 in0.0 mm 0.00 in0.0 mm 0.00 in0.0 mm
12:12 PM 27.5°F-2.5°C 23.0°F-5.0°C 83% 12.0 mph NE19.3 kmh NE 21.0 mph33.8 kmh 29.52 in999.7 mb 0.00 in0.0 mm 0.00 in0.0 mm 0.00 in0.0 mm
12:15 PM 27.3°F-2.6°C 23.0°F-5.0°C 83% 13.0 mph NE20.9 kmh NE 24.0 mph38.6 kmh 29.52 in999.7 mb 0.00 in0.0 mm 0.00 in0.0 mm 0.00 in0.0 mm
12:18 PM 27.5°F-2.5°C 23.0°F-5.0°C 83% 13.0 mph NE20.9 kmh NE 25.0 mph40.2 kmh 29.52 in999.7 mb 0.00 in0.0 mm 0.00 in0.0 mm 0.00 in0.0 mm
12:21 PM 27.5°F-2.5°C 23.0°F-5.0°C 83% 13.0 mph NE20.9 kmh NE 25.0 mph40.2 kmh 29.52 in999.7 mb 0.00 in0.0 mm 0.00 in0.0 mm 0.00 in0.0 mm
12:24 PM 27.5°F-2.5°C 23.0°F-5.0°C 83% 12.0 mph NE19.3 kmh NE 25.0 mph40.2 kmh 29.52 in999.7 mb 0.00 in0.0 mm 0.00 in0.0 mm 0.00 in0.0 mm
12:27 PM 27.7°F-2.4°C 23.4°F-4.8°C 84% 12.0 mph NE19.3 kmh NE 20.0 mph32.2 kmh 29.51 in999.3 mb 0.00 in0.0 mm 0.00 in0.0 mm 0.00 in0.0 mm
12:30 PM 27.9°F-2.3°C 23.5°F-4.7°C 84% 13.0 mph NE20.9 kmh NE 22.0 mph35.4 kmh 29.51 in999.3 mb 0.00 in0.0 mm 0.00 in0.0 mm 0.00 in0.0 mm
12:33 PM 27.9°F-2.3°C 23.7°F-4.6°C 84% 12.0 mph NE19.3 kmh NE 22.0 mph35.4 kmh 29.51 in999.3 mb 0.00 in0.0 mm 0.00 in0.0 mm 0.00 in0.0 mm
12:36 PM 28.0°F-2.2°C 23.7°F-4.6°C 84% 12.0 mph NE19.3 kmh NE 22.0 mph35.4 kmh 29.51 in999.3 mb 0.00 in0.0 mm 0.00 in0.0 mm 0.00 in0.0 mm
12:39 PM 28.0°F-2.2°C 23.9°F-4.5°C 84% 11.0 mph NE17.7 kmh NE 21.0 mph33.8 kmh 29.50 in999.0 mb 0.00 in0.0 mm 0.00 in0.0 mm 0.00 in0.0 mm
12:42 PM 28.0°F-2.2°C 23.7°F-4.6°C 84% 11.0 mph NE17.7 kmh NE 21.0 mph33.8 kmh 29.50 in999.0 mb 0.00 in0.0 mm 0.00 in0.0 mm 0.00 in0.0 mm
12:45 PM 28.0°F-2.2°C 23.7°F-4.6°C 84% 11.0 mph NE17.7 kmh NE 21.0 mph33.8 kmh 29.50 in999.0 mb 0.00 in0.0 mm 0.00 in0.0 mm 0.00 in0.0 mm
12:48 PM 27.9°F-2.3°C 23.7°F-4.6°C 84% 13.0 mph NE20.9 kmh NE 24.0 mph38.6 kmh 29.49 in998.6 mb 0.00 in0.0 mm 0.00 in0.0 mm 0.00 in0.0 mm
12:51 PM 28.0°F-2.2°C 23.7°F-4.6°C 84% 12.0 mph NE19.3 kmh NE 24.0 mph38.6 kmh 29.49 in998.6 mb 0.00 in0.0 mm 0.00 in0.0 mm 0.00 in0.0 mm
12:54 PM 28.0°F-2.2°C 23.9°F-4.5°C 84% 11.0 mph NE17.7 kmh NE 24.0 mph38.6 kmh 29.49 in998.6 mb 0.00 in0.0 mm 0.00 in0.0 mm 0.00 in0.0 mm
12:57 PM 28.2°F-2.1°C 24.1°F-4.4°C 84% 10.0 mph NE16.1 kmh NE 22.0 mph35.4 kmh 29.49 in998.6 mb 0.00 in0.0 mm 0.00 in0.0 mm 0.00 in0.0 mm
01:00 PM 28.2°F-2.1°C 24.1°F-4.4°C 84% 10.0 mph NE16.1 kmh NE 20.0 mph32.2 kmh 29.49 in998.6 mb 0.00 in0.0 mm 0.00 in0.0 mm 0.00 in0.0 mm
01:03 PM 28.2°F-2.1°C 23.7°F-4.6°C 83% 11.0 mph NE17.7 kmh NE 20.0 mph32.2 kmh 29.48 in998.3 mb 0.00 in0.0 mm 0.00 in0.0 mm 0.00 in0.0 mm
01:06 PM 28.2°F-2.1°C 23.7°F-4.6°C 83% 11.0 mph NE17.7 kmh NE 20.0 mph32.2 kmh 29.48 in998.3 mb 0.00 in0.0 mm 0.00 in0.0 mm 0.00 in0.0 mm
01:09 PM 28.4°F-2.0°C 23.9°F-4.5°C 83% 12.0 mph NE19.3 kmh NE 22.0 mph35.4 kmh 29.48 in998.3 mb 0.00 in0.0 mm 0.00 in0.0 mm 0.00 in0.0 mm
01:12 PM 28.6°F-1.9°C 24.1°F-4.4°C 83% 12.0 mph NE19.3 kmh NE 23.0 mph37.0 kmh 29.47 in998.0 mb 0.00 in0.0 mm 0.00 in0.0 mm 0.00 in0.0 mm
01:15 PM 28.6°F-1.9°C 23.7°F-4.6°C 82% 13.0 mph NE20.9 kmh NE 24.0 mph38.6 kmh 29.47 in998.0 mb 0.00 in0.0 mm 0.00 in0.0 mm 0.00 in0.0 mm
01:18 PM 28.8°F-1.8°C 23.9°F-4.5°C 82% 13.0 mph NE20.9 kmh NE 24.0 mph38.6 kmh 29.47 in998.0 mb 0.00 in0.0 mm 0.00 in0.0 mm 0.00 in0.0 mm
01:21 PM 28.8°F-1.8°C 24.1°F-4.4°C 82% 12.0 mph NE19.3 kmh NE 24.0 mph38.6 kmh 29.48 in998.3 mb 0.00 in0.0 mm 0.00 in0.0 mm 0.00 in0.0 mm
01:24 PM 28.8°F-1.8°C 24.1°F-4.4°C 82% 11.0 mph NE17.7 kmh NE 25.0 mph40.2 kmh 29.48 in998.3 mb 0.00 in0.0 mm 0.00 in0.0 mm 0.00 in0.0 mm
01:27 PM 28.8°F-1.8°C 23.7°F-4.6°C 81% 11.0 mph NE17.7 kmh NE 25.0 mph40.2 kmh 29.47 in998.0 mb 0.00 in0.0 mm 0.00 in0.0 mm 0.00 in0.0 mm
01:30 PM 28.9°F-1.7°C 23.7°F-4.6°C 81% 12.0 mph NE19.3 kmh NE 26.0 mph41.8 kmh 29.47 in998.0 mb 0.00 in0.0 mm 0.00 in0.0 mm 0.00 in0.0 mm
01:33 PM 28.9°F-1.7°C 23.9°F-4.5°C 81% 12.0 mph NE19.3 kmh NE 26.0 mph41.8 kmh 29.47 in998.0 mb 0.00 in0.0 mm 0.00 in0.0 mm 0.00 in0.0 mm
01:36 PM 29.1°F-1.6°C 24.1°F-4.4°C 81% 13.0 mph NE20.9 kmh NE 27.0 mph43.5 kmh 29.47 in998.0 mb 0.00 in0.0 mm 0.00 in0.0 mm 0.00 in0.0 mm
01:39 PM 29.1°F-1.6°C 24.1°F-4.4°C 81% 14.0 mph NE22.5 kmh NE 27.0 mph43.5 kmh 29.47 in998.0 mb 0.00 in0.0 mm 0.00 in0.0 mm 0.00 in0.0 mm
01:42 PM 29.1°F-1.6°C 24.1°F-4.4°C 81% 13.0 mph NE20.9 kmh NE 27.0 mph43.5 kmh 29.47 in998.0 mb 0.00 in0.0 mm 0.00 in0.0 mm 0.00 in0.0 mm
01:45 PM 29.1°F-1.6°C 24.1°F-4.4°C 81% 12.0 mph NE19.3 kmh NE 22.0 mph35.4 kmh 29.47 in998.0 mb 0.00 in0.0 mm 0.00 in0.0 mm 0.00 in0.0 mm
01:48 PM 29.1°F-1.6°C 24.1°F-4.4°C 81% 11.0 mph NE17.7 kmh NE 22.0 mph35.4 kmh 29.46 in997.6 mb 0.00 in0.0 mm 0.00 in0.0 mm 0.00 in0.0 mm
01:51 PM 29.1°F-1.6°C 23.7°F-4.6°C 80% 12.0 mph NE19.3 kmh NE 26.0 mph41.8 kmh 29.46 in997.6 mb 0.00 in0.0 mm 0.00 in0.0 mm 0.00 in0.0 mm
01:54 PM 29.1°F-1.6°C 23.7°F-4.6°C 80% 14.0 mph NE22.5 kmh NE 26.0 mph41.8 kmh 29.46 in997.6 mb 0.00 in0.0 mm 0.00 in0.0 mm 0.00 in0.0 mm
01:57 PM 29.1°F-1.6°C 23.7°F-4.6°C 80% 14.0 mph NE22.5 kmh NE 26.0 mph41.8 kmh 29.46 in997.6 mb 0.00 in0.0 mm 0.00 in0.0 mm 0.00 in0.0 mm
02:00 PM 29.3°F-1.5°C 23.9°F-4.5°C 80% 14.0 mph NE22.5 kmh NE 25.0 mph40.2 kmh 29.46 in997.6 mb 0.00 in0.0 mm 0.00 in0.0 mm 0.00 in0.0 mm
02:03 PM 29.3°F-1.5°C 23.9°F-4.5°C 80% 16.0 mph NE25.7 kmh NE 28.0 mph45.1 kmh 29.46 in997.6 mb 0.00 in0.0 mm 0.00 in0.0 mm 0.00 in0.0 mm
02:06 PM 29.3°F-1.5°C 23.9°F-4.5°C 80% 14.0 mph NE22.5 kmh NE 28.0 mph45.1 kmh 29.46 in997.6 mb 0.00 in0.0 mm 0.00 in0.0 mm 0.00 in0.0 mm
02:09 PM 29.1°F-1.6°C 23.7°F-4.6°C 80% 15.0 mph NE24.1 kmh NE 28.0 mph45.1 kmh 29.45 in997.3 mb 0.00 in0.0 mm 0.00 in0.0 mm 0.00 in0.0 mm
02:12 PM 29.1°F-1.6°C 23.7°F-4.6°C 80% 15.0 mph NE24.1 kmh NE 32.0 mph51.5 kmh 29.45 in997.3 mb 0.00 in0.0 mm 0.00 in0.0 mm 0.00 in0.0 mm
02:15 PM 29.1°F-1.6°C 23.7°F-4.6°C 80% 15.0 mph NE24.1 kmh NE 32.0 mph51.5 kmh 29.45 in997.3 mb 0.00 in0.0 mm 0.00 in0.0 mm 0.00 in0.0 mm
02:18 PM 29.1°F-1.6°C 24.1°F-4.4°C 81% 15.0 mph NE24.1 kmh NE 32.0 mph51.5 kmh 29.45 in997.3 mb 0.00 in0.0 mm 0.00 in0.0 mm 0.00 in0.0 mm
02:21 PM 29.1°F-1.6°C 24.1°F-4.4°C 81% 13.0 mph NE20.9 kmh NE 21.0 mph33.8 kmh 29.45 in997.3 mb 0.00 in0.0 mm 0.00 in0.0 mm 0.00 in0.0 mm
02:24 PM 29.1°F-1.6°C 24.1°F-4.4°C 81% 13.0 mph NE20.9 kmh NE 22.0 mph35.4 kmh 29.44 in997.0 mb 0.00 in0.0 mm 0.00 in0.0 mm 0.00 in0.0 mm
02:27 PM 29.1°F-1.6°C 24.1°F-4.4°C 81% 15.0 mph NE24.1 kmh NE 27.0 mph43.5 kmh 29.44 in997.0 mb 0.00 in0.0 mm 0.00 in0.0 mm 0.00 in0.0 mm
02:30 PM 29.1°F-1.6°C 24.1°F-4.4°C 81% 15.0 mph NE24.1 kmh NE 27.0 mph43.5 kmh 29.44 in997.0 mb 0.00 in0.0 mm 0.00 in0.0 mm 0.00 in0.0 mm
02:33 PM 28.9°F-1.7°C 24.3°F-4.3°C 82% 17.0 mph NE27.4 kmh NE 27.0 mph43.5 kmh 29.43 in996.6 mb 0.00 in0.0 mm 0.00 in0.0 mm 0.00 in0.0 mm
02:36 PM 28.9°F-1.7°C 24.1°F-4.4°C 82% 15.0 mph NE24.1 kmh NE 27.0 mph43.5 kmh 29.43 in996.6 mb 0.00 in0.0 mm 0.00 in0.0 mm 0.00 in0.0 mm
02:39 PM 28.9°F-1.7°C 24.4°F-4.2°C 83% 13.0 mph NE20.9 kmh NE 26.0 mph41.8 kmh 29.44 in997.0 mb 0.00 in0.0 mm 0.00 in0.0 mm 0.00 in0.0 mm
02:42 PM 28.9°F-1.7°C 24.4°F-4.2°C 83% 11.0 mph NE17.7 kmh NE 23.0 mph37.0 kmh 29.43 in996.6 mb 0.00 in0.0 mm 0.00 in0.0 mm 0.00 in0.0 mm
02:45 PM 28.9°F-1.7°C 24.4°F-4.2°C 83% 11.0 mph NNE17.7 kmh NNE 22.0 mph35.4 kmh 29.43 in996.6 mb 0.00 in0.0 mm 0.00 in0.0 mm 0.00 in0.0 mm
02:48 PM 28.8°F-1.8°C 24.6°F-4.1°C 84% 12.0 mph NE19.3 kmh NE 23.0 mph37.0 kmh 29.43 in996.6 mb 0.00 in0.0 mm 0.00 in0.0 mm 0.00 in0.0 mm
02:51 PM 28.9°F-1.7°C 24.6°F-4.1°C 84% 13.0 mph NE20.9 kmh NE 23.0 mph37.0 kmh 29.43 in996.6 mb 0.00 in0.0 mm 0.00 in0.0 mm 0.00 in0.0 mm
02:54 PM 28.8°F-1.8°C 24.6°F-4.1°C 84% 14.0 mph NE22.5 kmh NE 23.0 mph37.0 kmh 29.43 in996.6 mb 0.00 in0.0 mm 0.00 in0.0 mm 0.00 in0.0 mm
02:57 PM 28.8°F-1.8°C 24.4°F-4.2°C 84% 15.0 mph NE24.1 kmh NE 23.0 mph37.0 kmh 29.43 in996.6 mb 0.00 in0.0 mm 0.00 in0.0 mm 0.00 in0.0 mm
03:00 PM 28.6°F-1.9°C 24.6°F-4.1°C 85% 15.0 mph NE24.1 kmh NE 27.0 mph43.5 kmh 29.43 in996.6 mb 0.00 in0.0 mm 0.00 in0.0 mm 0.00 in0.0 mm
03:03 PM 28.6°F-1.9°C 24.6°F-4.1°C 85% 15.0 mph NE24.1 kmh NE 27.0 mph43.5 kmh 29.43 in996.6 mb 0.00 in0.0 mm 0.00 in0.0 mm 0.00 in0.0 mm
03:06 PM 28.6°F-1.9°C 24.6°F-4.1°C 85% 14.0 mph NE22.5 kmh NE 27.0 mph43.5 kmh 29.43 in996.6 mb 0.00 in0.0 mm 0.00 in0.0 mm 0.00 in0.0 mm
03:09 PM 28.6°F-1.9°C 24.6°F-4.1°C 85% 15.0 mph NE24.1 kmh NE 27.0 mph43.5 kmh 29.42 in996.3 mb 0.00 in0.0 mm 0.00 in0.0 mm 0.00 in0.0 mm
03:12 PM 28.6°F-1.9°C 24.6°F-4.1°C 85% 15.0 mph NE24.1 kmh NE 27.0 mph43.5 kmh 29.42 in996.3 mb 0.00 in0.0 mm 0.00 in0.0 mm 0.00 in0.0 mm
03:15 PM 28.6°F-1.9°C 24.6°F-4.1°C 85% 15.0 mph NE24.1 kmh NE 27.0 mph43.5 kmh 29.42 in996.3 mb 0.00 in0.0 mm 0.00 in0.0 mm 0.00 in0.0 mm
03:18 PM 28.6°F-1.9°C 24.6°F-4.1°C 85% 15.0 mph NE24.1 kmh NE 27.0 mph43.5 kmh 29.42 in996.3 mb 0.00 in0.0 mm 0.00 in0.0 mm 0.00 in0.0 mm
03:21 PM 28.6°F-1.9°C 24.6°F-4.1°C 85% 14.0 mph NE22.5 kmh NE 26.0 mph41.8 kmh 29.42 in996.3 mb 0.00 in0.0 mm 0.00 in0.0 mm 0.00 in0.0 mm
03:24 PM 28.6°F-1.9°C 24.6°F-4.1°C 85% 14.0 mph NE22.5 kmh NE 25.0 mph40.2 kmh 29.41 in995.9 mb 0.00 in0.0 mm 0.00 in0.0 mm 0.00 in0.0 mm
03:27 PM 28.6°F-1.9°C 24.6°F-4.1°C 85% 13.0 mph NE20.9 kmh NE 25.0 mph40.2 kmh 29.41 in995.9 mb 0.00 in0.0 mm 0.00 in0.0 mm 0.00 in0.0 mm
03:30 PM 28.6°F-1.9°C 24.6°F-4.1°C 85% 12.0 mph NE19.3 kmh NE 19.0 mph30.6 kmh 29.41 in995.9 mb 0.00 in0.0 mm 0.00 in0.0 mm 0.00 in0.0 mm
03:33 PM 28.6°F-1.9°C 24.6°F-4.1°C 85% 12.0 mph NE19.3 kmh NE 21.0 mph33.8 kmh 29.41 in995.9 mb 0.00 in0.0 mm 0.00 in0.0 mm 0.00 in0.0 mm
03:36 PM 28.6°F-1.9°C 24.6°F-4.1°C 85% 12.0 mph NE19.3 kmh NE 22.0 mph35.4 kmh 29.40 in995.6 mb 0.00 in0.0 mm 0.00 in0.0 mm 0.00 in0.0 mm
03:39 PM 28.6°F-1.9°C 24.6°F-4.1°C 85% 12.0 mph NE19.3 kmh NE 23.0 mph37.0 kmh 29.40 in995.6 mb 0.00 in0.0 mm 0.00 in0.0 mm 0.00 in0.0 mm
03:42 PM 28.6°F-1.9°C 24.6°F-4.1°C 85% 12.0 mph NE19.3 kmh NE 23.0 mph37.0 kmh 29.40 in995.6 mb 0.00 in0.0 mm 0.00 in0.0 mm 0.00 in0.0 mm
03:45 PM 28.6°F-1.9°C 24.6°F-4.1°C 85% 13.0 mph NE20.9 kmh NE 23.0 mph37.0 kmh 29.40 in995.6 mb 0.00 in0.0 mm 0.00 in0.0 mm 0.00 in0.0 mm
03:48 PM 28.8°F-1.8°C 24.8°F-4.0°C 85% 13.0 mph NE20.9 kmh NE 23.0 mph37.0 kmh 29.40 in995.6 mb 0.00 in0.0 mm 0.00 in0.0 mm 0.00 in0.0 mm
03:51 PM 28.8°F-1.8°C 24.8°F-4.0°C 85% 13.0 mph NE20.9 kmh NE 23.0 mph37.0 kmh 29.40 in995.6 mb 0.00 in0.0 mm 0.00 in0.0 mm 0.00 in0.0 mm
03:54 PM 28.8°F-1.8°C 24.8°F-4.0°C 85% 13.0 mph NE20.9 kmh NE 26.0 mph41.8 kmh 29.40 in995.6 mb 0.00 in0.0 mm 0.00 in0.0 mm 0.00 in0.0 mm
03:57 PM 28.8°F-1.8°C 24.6°F-4.1°C 84% 12.0 mph NE19.3 kmh NE 26.0 mph41.8 kmh 29.40 in995.6 mb 0.00 in0.0 mm 0.00 in0.0 mm 0.00 in0.0 mm
04:00 PM 28.8°F-1.8°C 24.6°F-4.1°C 84% 11.0 mph NE17.7 kmh NE 26.0 mph41.8 kmh 29.39 in995.3 mb 0.00 in0.0 mm 0.00 in0.0 mm 0.00 in0.0 mm
04:03 PM 28.8°F-1.8°C 24.8°F-4.0°C 85% 12.0 mph NE19.3 kmh NE 25.0 mph40.2 kmh 29.39 in995.3 mb 0.00 in0.0 mm 0.00 in0.0 mm 0.00 in0.0 mm
04:06 PM 28.8°F-1.8°C 24.8°F-4.0°C 85% 11.0 mph NE17.7 kmh NE 21.0 mph33.8 kmh 29.39 in995.3 mb 0.00 in0.0 mm 0.00 in0.0 mm 0.00 in0.0 mm
04:09 PM 28.8°F-1.8°C 24.8°F-4.0°C 85% 12.0 mph NE19.3 kmh NE 21.0 mph33.8 kmh 29.39 in995.3 mb 0.00 in0.0 mm 0.00 in0.0 mm 0.00 in0.0 mm
04:12 PM 28.8°F-1.8°C 24.8°F-4.0°C 85% 12.0 mph NE19.3 kmh NE 20.0 mph32.2 kmh 29.39 in995.3 mb 0.00 in0.0 mm 0.00 in0.0 mm 0.00 in0.0 mm
04:15 PM 28.8°F-1.8°C 24.8°F-4.0°C 85% 12.0 mph NE19.3 kmh NE 20.0 mph32.2 kmh 29.38 in994.9 mb 0.00 in0.0 mm 0.00 in0.0 mm 0.00 in0.0 mm
04:18 PM 28.8°F-1.8°C 24.8°F-4.0°C 85% 12.0 mph NE19.3 kmh NE 20.0 mph32.2 kmh 29.38 in994.9 mb 0.00 in0.0 mm 0.00 in0.0 mm 0.00 in0.0 mm
04:21 PM 28.8°F-1.8°C 24.8°F-4.0°C 85% 13.0 mph NE20.9 kmh NE 25.0 mph40.2 kmh 29.38 in994.9 mb 0.00 in0.0 mm 0.00 in0.0 mm 0.00 in0.0 mm
04:24 PM 28.9°F-1.7°C 24.6°F-4.1°C 84% 13.0 mph NE20.9 kmh NE 25.0 mph40.2 kmh 29.38 in994.9 mb 0.00 in0.0 mm 0.00 in0.0 mm 0.00 in0.0 mm
04:27 PM 28.9°F-1.7°C 24.8°F-4.0°C 84% 13.0 mph NE20.9 kmh NE 25.0 mph40.2 kmh 29.38 in994.9 mb 0.00 in0.0 mm 0.00 in0.0 mm 0.00 in0.0 mm
04:30 PM 29.1°F-1.6°C 24.8°F-4.0°C 84% 12.0 mph NE19.3 kmh NE 25.0 mph40.2 kmh 29.38 in994.9 mb 0.00 in0.0 mm 0.00 in0.0 mm 0.00 in0.0 mm
04:33 PM 29.1°F-1.6°C 24.8°F-4.0°C 84% 10.0 mph NE16.1 kmh NE 19.0 mph30.6 kmh 29.38 in994.9 mb 0.00 in0.0 mm 0.00 in0.0 mm 0.00 in0.0 mm
04:36 PM 29.1°F-1.6°C 24.8°F-4.0°C 84% 10.0 mph NNE16.1 kmh NNE 19.0 mph30.6 kmh 29.38 in994.9 mb 0.00 in0.0 mm 0.00 in0.0 mm 0.00 in0.0 mm
04:39 PM 28.9°F-1.7°C 24.8°F-4.0°C 84% 10.0 mph NNE16.1 kmh NNE 18.0 mph29.0 kmh 29.37 in994.6 mb 0.00 in0.0 mm 0.00 in0.0 mm 0.00 in0.0 mm
04:42 PM 28.9°F-1.7°C 24.8°F-4.0°C 84% 10.0 mph NNE16.1 kmh NNE 18.0 mph29.0 kmh 29.37 in994.6 mb 0.00 in0.0 mm 0.00 in0.0 mm 0.00 in0.0 mm
04:45 PM 28.9°F-1.7°C 24.6°F-4.1°C 84% 11.0 mph NE17.7 kmh NE 18.0 mph29.0 kmh 29.37 in994.6 mb 0.00 in0.0 mm 0.00 in0.0 mm 0.00 in0.0 mm
04:48 PM 28.9°F-1.7°C 25.0°F-3.9°C 85% 12.0 mph NE19.3 kmh NE 23.0 mph37.0 kmh 29.36 in994.2 mb 0.00 in0.0 mm 0.00 in0.0 mm 0.00 in0.0 mm
04:51 PM 28.9°F-1.7°C 25.0°F-3.9°C 85% 12.0 mph NE19.3 kmh NE 28.0 mph45.1 kmh 29.37 in994.6 mb 0.00 in0.0 mm 0.00 in0.0 mm 0.00 in0.0 mm
04:54 PM 28.9°F-1.7°C 24.8°F-4.0°C 84% 12.0 mph NE19.3 kmh NE 28.0 mph45.1 kmh 29.37 in994.6 mb 0.00 in0.0 mm 0.00 in0.0 mm 0.00 in0.0 mm
04:57 PM 29.1°F-1.6°C 24.8°F-4.0°C 84% 12.0 mph NE19.3 kmh NE 28.0 mph45.1 kmh 29.37 in994.6 mb 0.00 in0.0 mm 0.00 in0.0 mm 0.00 in0.0 mm
05:00 PM 29.1°F-1.6°C 24.8°F-4.0°C 84% 11.0 mph NE17.7 kmh NE 28.0 mph45.1 kmh 29.37 in994.6 mb 0.00 in0.0 mm 0.00 in0.0 mm 0.00 in0.0 mm
05:03 PM 28.9°F-1.7°C 24.8°F-4.0°C 84% 10.0 mph NNE16.1 kmh NNE 17.0 mph27.4 kmh 29.36 in994.2 mb 0.00 in0.0 mm 0.00 in0.0 mm 0.00 in0.0 mm
05:06 PM 28.9°F-1.7°C 24.8°F-4.0°C 84% 10.0 mph NNE16.1 kmh NNE 17.0 mph27.4 kmh 29.36 in994.2 mb 0.00 in0.0 mm 0.00 in0.0 mm 0.00 in0.0 mm
05:09 PM 28.9°F-1.7°C 25.0°F-3.9°C 85% 10.0 mph NNE16.1 kmh NNE 19.0 mph30.6 kmh 29.37 in994.6 mb 0.00 in0.0 mm 0.00 in0.0 mm 0.00 in0.0 mm
05:12 PM 28.9°F-1.7°C 25.0°F-3.9°C 85% 10.0 mph NNE16.1 kmh NNE 19.0 mph30.6 kmh 29.37 in994.6 mb 0.00 in0.0 mm 0.00 in0.0 mm 0.00 in0.0 mm
05:15 PM 28.9°F-1.7°C 25.0°F-3.9°C 85% 10.0 mph NNE16.1 kmh NNE 19.0 mph30.6 kmh 29.37 in994.6 mb 0.00 in0.0 mm 0.00 in0.0 mm 0.00 in0.0 mm
05:18 PM 28.9°F-1.7°C 25.0°F-3.9°C 85% 9.0 mph NNE14.5 kmh NNE 17.0 mph27.4 kmh 29.36 in994.2 mb 0.00 in0.0 mm 0.00 in0.0 mm 0.00 in0.0 mm
05:21 PM 29.1°F-1.6°C 25.2°F-3.8°C 85% 9.0 mph NNE14.5 kmh NNE 16.0 mph25.7 kmh 29.36 in994.2 mb 0.00 in0.0 mm 0.00 in0.0 mm 0.00 in0.0 mm
05:24 PM 28.9°F-1.7°C 25.0°F-3.9°C 85% 8.0 mph NNE12.9 kmh NNE 16.0 mph25.7 kmh 29.36 in994.2 mb 0.00 in0.0 mm 0.00 in0.0 mm 0.00 in0.0 mm
05:27 PM 29.1°F-1.6°C 25.2°F-3.8°C 85% 9.0 mph NE14.5 kmh NE 20.0 mph32.2 kmh 29.36 in994.2 mb 0.00 in0.0 mm 0.00 in0.0 mm 0.00 in0.0 mm
05:30 PM 29.1°F-1.6°C 25.2°F-3.8°C 85% 9.0 mph NE14.5 kmh NE 25.0 mph40.2 kmh 29.36 in994.2 mb 0.00 in0.0 mm 0.00 in0.0 mm 0.00 in0.0 mm
05:33 PM 29.1°F-1.6°C 25.3°F-3.7°C 85% 10.0 mph NE16.1 kmh NE 25.0 mph40.2 kmh 29.36 in994.2 mb 0.00 in0.0 mm 0.00 in0.0 mm 0.00 in0.0 mm
05:36 PM 29.3°F-1.5°C 25.3°F-3.7°C 85% 10.0 mph NE16.1 kmh NE 25.0 mph40.2 kmh 29.36 in994.2 mb 0.00 in0.0 mm 0.00 in0.0 mm 0.00 in0.0 mm
05:39 PM 29.5°F-1.4°C 25.3°F-3.7°C 84% 10.0 mph NE16.1 kmh NE 17.0 mph27.4 kmh 29.36 in994.2 mb 0.00 in0.0 mm 0.00 in0.0 mm 0.00 in0.0 mm
05:42 PM 29.5°F-1.4°C 25.3°F-3.7°C 84% 10.0 mph NE16.1 kmh NE 19.0 mph30.6 kmh 29.36 in994.2 mb 0.00 in0.0 mm 0.00 in0.0 mm 0.00 in0.0 mm
05:45 PM 29.7°F-1.3°C 25.3°F-3.7°C 84% 10.0 mph NE16.1 kmh NE 19.0 mph30.6 kmh 29.36 in994.2 mb 0.00 in0.0 mm 0.00 in0.0 mm 0.00 in0.0 mm
05:48 PM 29.5°F-1.4°C 25.3°F-3.7°C 84% 10.0 mph NE16.1 kmh NE 19.0 mph30.6 kmh 29.36 in994.2 mb 0.00 in0.0 mm 0.00 in0.0 mm 0.00 in0.0 mm
05:51 PM 29.5°F-1.4°C 25.2°F-3.8°C 84% 10.0 mph NNE16.1 kmh NNE 19.0 mph30.6 kmh 29.35 in993.9 mb 0.00 in0.0 mm 0.00 in0.0 mm 0.00 in0.0 mm
05:54 PM 29.5°F-1.4°C 25.2°F-3.8°C 84% 10.0 mph NNE16.1 kmh NNE 19.0 mph30.6 kmh 29.35 in993.9 mb 0.00 in0.0 mm 0.00 in0.0 mm 0.00 in0.0 mm
05:57 PM 29.5°F-1.4°C 25.2°F-3.8°C 84% 10.0 mph NNE16.1 kmh NNE 19.0 mph30.6 kmh 29.35 in993.9 mb 0.00 in0.0 mm 0.00 in0.0 mm 0.00 in0.0 mm
06:00 PM 29.5°F-1.4°C 25.2°F-3.8°C 84% 10.0 mph NNE16.1 kmh NNE 18.0 mph29.0 kmh 29.35 in993.9 mb 0.00 in0.0 mm 0.00 in0.0 mm 0.00 in0.0 mm
06:03 PM 29.5°F-1.4°C 25.2°F-3.8°C 84% 10.0 mph NNE16.1 kmh NNE 23.0 mph37.0 kmh 29.35 in993.9 mb 0.00 in0.0 mm 0.00 in0.0 mm 0.00 in0.0 mm
06:06 PM 29.5°F-1.4°C 25.2°F-3.8°C 84% 11.0 mph NNE17.7 kmh NNE 23.0 mph37.0 kmh 29.34 in993.6 mb 0.00 in0.0 mm 0.00 in0.0 mm 0.00 in0.0 mm
06:09 PM 29.5°F-1.4°C 25.2°F-3.8°C 84% 11.0 mph NNE17.7 kmh NNE 23.0 mph37.0 kmh 29.34 in993.6 mb 0.00 in0.0 mm 0.00 in0.0 mm 0.00 in0.0 mm
06:12 PM 29.5°F-1.4°C 25.2°F-3.8°C 84% 12.0 mph NE19.3 kmh NE 23.0 mph37.0 kmh 29.35 in993.9 mb 0.00 in0.0 mm 0.00 in0.0 mm 0.00 in0.0 mm
06:15 PM 29.5°F-1.4°C 25.3°F-3.7°C 84% 12.0 mph NE19.3 kmh NE 22.0 mph35.4 kmh 29.35 in993.9 mb 0.00 in0.0 mm 0.00 in0.0 mm 0.00 in0.0 mm
06:18 PM 29.7°F-1.3°C 25.3°F-3.7°C 84% 12.0 mph NE19.3 kmh NE 22.0 mph35.4 kmh 29.35 in993.9 mb 0.00 in0.0 mm 0.00 in0.0 mm 0.00 in0.0 mm
06:21 PM 29.7°F-1.3°C 25.3°F-3.7°C 84% 11.0 mph NE17.7 kmh NE 22.0 mph35.4 kmh 29.35 in993.9 mb 0.00 in0.0 mm 0.00 in0.0 mm 0.00 in0.0 mm
06:24 PM 29.7°F-1.3°C 25.5°F-3.6°C 84% 10.0 mph NE16.1 kmh NE 20.0 mph32.2 kmh 29.35 in993.9 mb 0.00 in0.0 mm 0.00 in0.0 mm 0.00 in0.0 mm
06:27 PM 29.7°F-1.3°C 25.5°F-3.6°C 84% 11.0 mph NE17.7 kmh NE 20.0 mph32.2 kmh 29.34 in993.6 mb 0.00 in0.0 mm 0.00 in0.0 mm 0.00 in0.0 mm
06:30 PM 29.8°F-1.2°C 25.5°F-3.6°C 84% 13.0 mph NE20.9 kmh NE 27.0 mph43.5 kmh 29.34 in993.6 mb 0.00 in0.0 mm 0.00 in0.0 mm 0.00 in0.0 mm
06:33 PM 30.0°F-1.1°C 25.5°F-3.6°C 83% 13.0 mph NE20.9 kmh NE 27.0 mph43.5 kmh 29.34 in993.6 mb 0.00 in0.0 mm 0.00 in0.0 mm 0.00 in0.0 mm
06:36 PM 30.0°F-1.1°C 25.5°F-3.6°C 83% 14.0 mph NE22.5 kmh NE 27.0 mph43.5 kmh 29.34 in993.6 mb 0.00 in0.0 mm 0.00 in0.0 mm 0.00 in0.0 mm
06:39 PM 30.0°F-1.1°C 25.5°F-3.6°C 83% 14.0 mph NE22.5 kmh NE 27.0 mph43.5 kmh 29.34 in993.6 mb 0.00 in0.0 mm 0.00 in0.0 mm 0.00 in0.0 mm
06:42 PM 30.2°F-1.0°C 25.7°F-3.5°C 83% 14.0 mph NE22.5 kmh NE 31.0 mph49.9 kmh 29.34 in993.6 mb 0.00 in0.0 mm 0.00 in0.0 mm 0.00 in0.0 mm
06:45 PM 30.2°F-1.0°C 25.7°F-3.5°C 83% 15.0 mph NE24.1 kmh NE 31.0 mph49.9 kmh 29.33 in993.2 mb 0.00 in0.0 mm 0.00 in0.0 mm 0.00 in0.0 mm
06:48 PM 30.2°F-1.0°C 25.7°F-3.5°C 83% 14.0 mph NE22.5 kmh NE 31.0 mph49.9 kmh 29.34 in993.6 mb 0.00 in0.0 mm 0.00 in0.0 mm 0.00 in0.0 mm
06:51 PM 30.2°F-1.0°C 25.7°F-3.5°C 83% 13.0 mph NE20.9 kmh NE 31.0 mph49.9 kmh 29.34 in993.6 mb 0.00 in0.0 mm 0.00 in0.0 mm 0.00 in0.0 mm
06:54 PM 30.2°F-1.0°C 25.7°F-3.5°C 83% 13.0 mph NE20.9 kmh NE 25.0 mph40.2 kmh 29.34 in993.6 mb 0.00 in0.0 mm 0.00 in0.0 mm 0.00 in0.0 mm
06:57 PM 30.4°F-0.9°C 25.7°F-3.5°C 83% 13.0 mph NE20.9 kmh NE 29.0 mph46.7 kmh 29.33 in993.2 mb 0.00 in0.0 mm 0.00 in0.0 mm 0.00 in0.0 mm
07:00 PM 30.4°F-0.9°C 25.5°F-3.6°C 82% 15.0 mph NE24.1 kmh NE 29.0 mph46.7 kmh 29.33 in993.2 mb 0.00 in0.0 mm 0.00 in0.0 mm 0.00 in0.0 mm
07:03 PM 30.4°F-0.9°C 25.5°F-3.6°C 82% 14.0 mph NE22.5 kmh NE 29.0 mph46.7 kmh 29.33 in993.2 mb 0.00 in0.0 mm 0.00 in0.0 mm 0.00 in0.0 mm
07:06 PM 30.4°F-0.9°C 25.5°F-3.6°C 82% 14.0 mph NE22.5 kmh NE 29.0 mph46.7 kmh 29.33 in993.2 mb 0.00 in0.0 mm 0.00 in0.0 mm 0.00 in0.0 mm
07:09 PM 30.4°F-0.9°C 25.9°F-3.4°C 83% 13.0 mph NE20.9 kmh NE 26.0 mph41.8 kmh 29.33 in993.2 mb 0.00 in0.0 mm 0.00 in0.0 mm 0.00 in0.0 mm
07:12 PM 30.4°F-0.9°C 25.9°F-3.4°C 83% 13.0 mph NE20.9 kmh NE 26.0 mph41.8 kmh 29.33 in993.2 mb 0.00 in0.0 mm 0.00 in0.0 mm 0.00 in0.0 mm
07:15 PM 30.4°F-0.9°C 25.9°F-3.4°C 83% 15.0 mph NE24.1 kmh NE 26.0 mph41.8 kmh 29.32 in992.9 mb 0.00 in0.0 mm 0.00 in0.0 mm 0.00 in0.0 mm
07:18 PM 30.4°F-0.9°C 25.9°F-3.4°C 83% 13.0 mph NE20.9 kmh NE 25.0 mph40.2 kmh 29.32 in992.9 mb 0.00 in0.0 mm 0.00 in0.0 mm 0.00 in0.0 mm
07:21 PM 30.4°F-0.9°C 25.9°F-3.4°C 83% 13.0 mph NE20.9 kmh NE 25.0 mph40.2 kmh 29.32 in992.9 mb 0.00 in0.0 mm 0.00 in0.0 mm 0.00 in0.0 mm
07:24 PM 30.4°F-0.9°C 25.9°F-3.4°C 83% 14.0 mph NE22.5 kmh NE 25.0 mph40.2 kmh 29.32 in992.9 mb 0.00 in0.0 mm 0.00 in0.0 mm 0.00 in0.0 mm
07:27 PM 30.4°F-0.9°C 25.9°F-3.4°C 83% 13.0 mph NE20.9 kmh NE 25.0 mph40.2 kmh 29.32 in992.9 mb 0.00 in0.0 mm 0.00 in0.0 mm 0.00 in0.0 mm
07:30 PM 30.4°F-0.9°C 25.9°F-3.4°C 83% 14.0 mph NE22.5 kmh NE 25.0 mph40.2 kmh 29.32 in992.9 mb 0.00 in0.0 mm 0.00 in0.0 mm 0.00 in0.0 mm
07:33 PM 30.4°F-0.9°C 25.9°F-3.4°C 83% 14.0 mph NE22.5 kmh NE 23.0 mph37.0 kmh 29.32 in992.9 mb 0.00 in0.0 mm 0.00 in0.0 mm 0.00 in0.0 mm
07:36 PM 30.4°F-0.9°C 26.1°F-3.3°C 84% 15.0 mph NE24.1 kmh NE 25.0 mph40.2 kmh 29.32 in992.9 mb 0.00 in0.0 mm 0.00 in0.0 mm 0.00 in0.0 mm
07:39 PM 30.4°F-0.9°C 26.1°F-3.3°C 84% 16.0 mph NE25.7 kmh NE 27.0 mph43.5 kmh 29.32 in992.9 mb 0.00 in0.0 mm 0.00 in0.0 mm 0.00 in0.0 mm
07:42 PM 30.2°F-1.0°C 25.9°F-3.4°C 84% 15.0 mph NE24.1 kmh NE 27.0 mph43.5 kmh 29.31 in992.6 mb 0.00 in0.0 mm 0.00 in0.0 mm 0.00 in0.0 mm
07:45 PM 30.2°F-1.0°C 26.2°F-3.2°C 85% 16.0 mph NE25.7 kmh NE 27.0 mph43.5 kmh 29.32 in992.9 mb 0.00 in0.0 mm 0.00 in0.0 mm 0.00 in0.0 mm
07:48 PM 30.2°F-1.0°C 26.2°F-3.2°C 85% 15.0 mph NE24.1 kmh NE 27.0 mph43.5 kmh 29.31 in992.6 mb 0.00 in0.0 mm 0.00 in0.0 mm 0.00 in0.0 mm
07:51 PM 30.2°F-1.0°C 26.2°F-3.2°C 85% 16.0 mph NE25.7 kmh NE 28.0 mph45.1 kmh 29.30 in992.2 mb 0.00 in0.0 mm 0.00 in0.0 mm 0.00 in0.0 mm
07:54 PM 30.2°F-1.0°C 26.2°F-3.2°C 85% 15.0 mph NE24.1 kmh NE 28.0 mph45.1 kmh 29.31 in992.6 mb 0.00 in0.0 mm 0.00 in0.0 mm 0.00 in0.0 mm
07:57 PM 30.2°F-1.0°C 26.2°F-3.2°C 85% 15.0 mph NE24.1 kmh NE 28.0 mph45.1 kmh 29.30 in992.2 mb 0.00 in0.0 mm 0.00 in0.0 mm 0.00 in0.0 mm
08:00 PM 30.4°F-0.9°C 26.4°F-3.1°C 85% 14.0 mph NE22.5 kmh NE 28.0 mph45.1 kmh 29.30 in992.2 mb 0.00 in0.0 mm 0.00 in0.0 mm 0.00 in0.0 mm
08:03 PM 30.4°F-0.9°C 26.4°F-3.1°C 85% 14.0 mph NE22.5 kmh NE 26.0 mph41.8 kmh 29.30 in992.2 mb 0.00 in0.0 mm 0.00 in0.0 mm 0.00 in0.0 mm
08:06 PM 30.4°F-0.9°C 26.4°F-3.1°C 85% 15.0 mph NE24.1 kmh NE 26.0 mph41.8 kmh 29.30 in992.2 mb 0.00 in0.0 mm 0.00 in0.0 mm 0.00 in0.0 mm
08:09 PM 30.4°F-0.9°C 26.1°F-3.3°C 84% 15.0 mph NE24.1 kmh NE 26.0 mph41.8 kmh 29.30 in992.2 mb 0.00 in0.0 mm 0.00 in0.0 mm 0.00 in0.0 mm
08:12 PM 30.6°F-0.8°C 26.2°F-3.2°C 84% 16.0 mph NE25.7 kmh NE 28.0 mph45.1 kmh 29.30 in992.2 mb 0.00 in0.0 mm 0.00 in0.0 mm 0.00 in0.0 mm
08:15 PM 30.6°F-0.8°C 26.2°F-3.2°C 84% 16.0 mph NE25.7 kmh NE 28.0 mph45.1 kmh 29.30 in992.2 mb 0.00 in0.0 mm 0.00 in0.0 mm 0.00 in0.0 mm
08:18 PM 30.6°F-0.8°C 26.2°F-3.2°C 84% 16.0 mph NE25.7 kmh NE 28.0 mph45.1 kmh 29.29 in991.9 mb 0.00 in0.0 mm 0.00 in0.0 mm 0.00 in0.0 mm
08:21 PM 30.6°F-0.8°C 26.2°F-3.2°C 84% 16.0 mph NE25.7 kmh NE 31.0 mph49.9 kmh 29.29 in991.9 mb 0.00 in0.0 mm 0.00 in0.0 mm 0.00 in0.0 mm
08:24 PM 30.6°F-0.8°C 26.2°F-3.2°C 84% 16.0 mph NE25.7 kmh NE 31.0 mph49.9 kmh 29.29 in991.9 mb 0.00 in0.0 mm 0.00 in0.0 mm 0.00 in0.0 mm
08:27 PM 30.6°F-0.8°C 26.2°F-3.2°C 84% 16.0 mph NE25.7 kmh NE 31.0 mph49.9 kmh 29.29 in991.9 mb 0.00 in0.0 mm 0.00 in0.0 mm 0.00 in0.0 mm
08:30 PM 30.4°F-0.9°C 26.1°F-3.3°C 84% 15.0 mph NE24.1 kmh NE 31.0 mph49.9 kmh 29.29 in991.9 mb 0.00 in0.0 mm 0.00 in0.0 mm 0.00 in0.0 mm
08:33 PM 30.4°F-0.9°C 26.1°F-3.3°C 84% 15.0 mph NE24.1 kmh NE 31.0 mph49.9 kmh 29.29 in991.9 mb 0.00 in0.0 mm 0.00 in0.0 mm 0.00 in0.0 mm
08:36 PM 30.4°F-0.9°C 26.4°F-3.1°C 85% 14.0 mph NE22.5 kmh NE 26.0 mph41.8 kmh 29.29 in991.9 mb 0.00 in0.0 mm 0.00 in0.0 mm 0.00 in0.0 mm
08:39 PM 30.4°F-0.9°C 26.4°F-3.1°C 85% 13.0 mph NE20.9 kmh NE 26.0 mph41.8 kmh 29.29 in991.9 mb 0.00 in0.0 mm 0.00 in0.0 mm 0.00 in0.0 mm
08:42 PM 30.4°F-0.9°C 26.4°F-3.1°C 85% 13.0 mph NE20.9 kmh NE 26.0 mph41.8 kmh 29.29 in991.9 mb 0.00 in0.0 mm 0.00 in0.0 mm 0.00 in0.0 mm
08:45 PM 30.4°F-0.9°C 26.4°F-3.1°C 85% 13.0 mph NE20.9 kmh NE 26.0 mph41.8 kmh 29.29 in991.9 mb 0.00 in0.0 mm 0.00 in0.0 mm 0.00 in0.0 mm
08:48 PM 30.4°F-0.9°C 26.6°F-3.0°C 86% 13.0 mph NE20.9 kmh NE 25.0 mph40.2 kmh 29.29 in991.9 mb 0.00 in0.0 mm 0.00 in0.0 mm 0.00 in0.0 mm
08:51 PM 30.4°F-0.9°C 26.6°F-3.0°C 86% 14.0 mph NE22.5 kmh NE 25.0 mph40.2 kmh 29.28 in991.5 mb 0.00 in0.0 mm 0.00 in0.0 mm 0.00 in0.0 mm
08:54 PM 30.4°F-0.9°C 26.6°F-3.0°C 86% 13.0 mph NE20.9 kmh NE 25.0 mph40.2 kmh 29.28 in991.5 mb 0.00 in0.0 mm 0.00 in0.0 mm 0.00 in0.0 mm
08:57 PM 30.4°F-0.9°C 26.6°F-3.0°C 86% 13.0 mph NE20.9 kmh NE 25.0 mph40.2 kmh 29.28 in991.5 mb 0.00 in0.0 mm 0.00 in0.0 mm 0.00 in0.0 mm
09:00 PM 30.4°F-0.9°C 26.6°F-3.0°C 86% 13.0 mph NE20.9 kmh NE 24.0 mph38.6 kmh 29.28 in991.5 mb 0.00 in0.0 mm 0.00 in0.0 mm 0.00 in0.0 mm
09:03 PM 30.2°F-1.0°C 26.8°F-2.9°C 87% 13.0 mph NE20.9 kmh NE 24.0 mph38.6 kmh 29.28 in991.5 mb 0.00 in0.0 mm 0.00 in0.0 mm 0.00 in0.0 mm
09:06 PM 30.2°F-1.0°C 26.8°F-2.9°C 87% 14.0 mph NE22.5 kmh NE 28.0 mph45.1 kmh 29.28 in991.5 mb 0.00 in0.0 mm 0.00 in0.0 mm 0.00 in0.0 mm
09:09 PM 30.0°F-1.1°C 26.8°F-2.9°C 87% 14.0 mph NE22.5 kmh NE 29.0 mph46.7 kmh 29.28 in991.5 mb 0.00 in0.0 mm 0.00 in0.0 mm 0.00 in0.0 mm
09:12 PM 30.0°F-1.1°C 27.0°F-2.8°C 88% 13.0 mph NE20.9 kmh NE 29.0 mph46.7 kmh 29.28 in991.5 mb 0.00 in0.0 mm 0.00 in0.0 mm 0.00 in0.0 mm
09:15 PM 30.0°F-1.1°C 27.0°F-2.8°C 88% 13.0 mph NE20.9 kmh NE 29.0 mph46.7 kmh 29.28 in991.5 mb 0.00 in0.0 mm 0.00 in0.0 mm 0.00 in0.0 mm
09:18 PM 30.0°F-1.1°C 27.0°F-2.8°C 88% 12.0 mph NE19.3 kmh NE 24.0 mph38.6 kmh 29.28 in991.5 mb 0.00 in0.0 mm 0.00 in0.0 mm 0.00 in0.0 mm
09:21 PM 30.0°F-1.1°C 27.0°F-2.8°C 88% 13.0 mph NE20.9 kmh NE 24.0 mph38.6 kmh 29.28 in991.5 mb 0.00 in0.0 mm 0.00 in0.0 mm 0.00 in0.0 mm
09:24 PM 30.0°F-1.1°C 27.1°F-2.7°C 89% 13.0 mph NE20.9 kmh NE 26.0 mph41.8 kmh 29.27 in991.2 mb 0.00 in0.0 mm 0.00 in0.0 mm 0.00 in0.0 mm
09:27 PM 30.0°F-1.1°C 27.1°F-2.7°C 89% 13.0 mph NE20.9 kmh NE 26.0 mph41.8 kmh 29.27 in991.2 mb 0.00 in0.0 mm 0.00 in0.0 mm 0.00 in0.0 mm
09:30 PM 30.0°F-1.1°C 27.3°F-2.6°C 89% 14.0 mph NE22.5 kmh NE 26.0 mph41.8 kmh 29.28 in991.5 mb 0.00 in0.0 mm 0.00 in0.0 mm 0.00 in0.0 mm
09:33 PM 30.0°F-1.1°C 27.3°F-2.6°C 89% 13.0 mph NE20.9 kmh NE 26.0 mph41.8 kmh 29.28 in991.5 mb 0.00 in0.0 mm 0.00 in0.0 mm 0.00 in0.0 mm
09:36 PM 30.0°F-1.1°C 27.3°F-2.6°C 89% 13.0 mph NE20.9 kmh NE 26.0 mph41.8 kmh 29.28 in991.5 mb 0.00 in0.0 mm 0.00 in0.0 mm 0.00 in0.0 mm
09:39 PM 30.0°F-1.1°C 27.3°F-2.6°C 89% 13.0 mph NE20.9 kmh NE 27.0 mph43.5 kmh 29.27 in991.2 mb 0.00 in0.0 mm 0.00 in0.0 mm 0.00 in0.0 mm
09:42 PM 30.0°F-1.1°C 27.3°F-2.6°C 89% 13.0 mph NE20.9 kmh NE 27.0 mph43.5 kmh 29.27 in991.2 mb 0.00 in0.0 mm 0.00 in0.0 mm 0.00 in0.0 mm
09:45 PM 30.0°F-1.1°C 27.3°F-2.6°C 89% 13.0 mph NE20.9 kmh NE 27.0 mph43.5 kmh 29.27 in991.2 mb 0.00 in0.0 mm 0.00 in0.0 mm 0.00 in0.0 mm
09:48 PM 30.0°F-1.1°C 27.1°F-2.7°C 89% 14.0 mph NE22.5 kmh NE 27.0 mph43.5 kmh 29.27 in991.2 mb 0.00 in0.0 mm 0.00 in0.0 mm 0.00 in0.0 mm
09:51 PM 30.0°F-1.1°C 27.3°F-2.6°C 89% 14.0 mph NE22.5 kmh NE 24.0 mph38.6 kmh 29.27 in991.2 mb 0.00 in0.0 mm 0.00 in0.0 mm 0.00 in0.0 mm
09:54 PM 30.0°F-1.1°C 27.1°F-2.7°C 89% 15.0 mph NE24.1 kmh NE 28.0 mph45.1 kmh 29.27 in991.2 mb 0.00 in0.0 mm 0.00 in0.0 mm 0.00 in0.0 mm
09:57 PM 30.0°F-1.1°C 27.1°F-2.7°C 89% 15.0 mph NE24.1 kmh NE 28.0 mph45.1 kmh 29.27 in991.2 mb 0.00 in0.0 mm 0.00 in0.0 mm 0.00 in0.0 mm
10:00 PM 30.0°F-1.1°C 27.5°F-2.5°C 90% 15.0 mph NE24.1 kmh NE 28.0 mph45.1 kmh 29.27 in991.2 mb 0.00 in0.0 mm 0.00 in0.0 mm 0.00 in0.0 mm
10:03 PM 30.0°F-1.1°C 27.5°F-2.5°C 90% 15.0 mph NE24.1 kmh NE 28.0 mph45.1 kmh 29.27 in991.2 mb 0.00 in0.0 mm 0.00 in0.0 mm 0.00 in0.0 mm
10:06 PM 30.0°F-1.1°C 27.5°F-2.5°C 90% 13.0 mph NE20.9 kmh NE 25.0 mph40.2 kmh 29.27 in991.2 mb 0.00 in0.0 mm 0.00 in0.0 mm 0.00 in0.0 mm
10:09 PM 30.0°F-1.1°C 27.3°F-2.6°C 89% 14.0 mph NE22.5 kmh NE 25.0 mph40.2 kmh 29.26 in990.9 mb 0.00 in0.0 mm 0.00 in0.0 mm 0.00 in0.0 mm
10:12 PM 30.0°F-1.1°C 27.5°F-2.5°C 90% 13.0 mph NE20.9 kmh NE 24.0 mph38.6 kmh 29.26 in990.9 mb 0.00 in0.0 mm 0.00 in0.0 mm 0.00 in0.0 mm
10:15 PM 30.0°F-1.1°C 27.5°F-2.5°C 90% 14.0 mph NE22.5 kmh NE 25.0 mph40.2 kmh 29.26 in990.9 mb 0.00 in0.0 mm 0.00 in0.0 mm 0.00 in0.0 mm
10:18 PM 30.0°F-1.1°C 27.5°F-2.5°C 90% 15.0 mph NE24.1 kmh NE 25.0 mph40.2 kmh 29.26 in990.9 mb 0.00 in0.0 mm 0.00 in0.0 mm 0.00 in0.0 mm
10:21 PM 30.0°F-1.1°C 27.5°F-2.5°C 90% 14.0 mph NE22.5 kmh NE 25.0 mph40.2 kmh 29.26 in990.9 mb 0.00 in0.0 mm 0.00 in0.0 mm 0.00 in0.0 mm
10:24 PM 30.0°F-1.1°C 27.5°F-2.5°C 90% 13.0 mph NE20.9 kmh NE 25.0 mph40.2 kmh 29.26 in990.9 mb 0.00 in0.0 mm 0.00 in0.0 mm 0.00 in0.0 mm
10:27 PM 30.0°F-1.1°C 27.5°F-2.5°C 90% 13.0 mph NE20.9 kmh NE 25.0 mph40.2 kmh 29.26 in990.9 mb 0.00 in0.0 mm 0.00 in0.0 mm 0.00 in0.0 mm
10:30 PM 30.0°F-1.1°C 27.5°F-2.5°C 90% 13.0 mph NE20.9 kmh NE 23.0 mph37.0 kmh 29.26 in990.9 mb 0.00 in0.0 mm 0.00 in0.0 mm 0.00 in0.0 mm
10:33 PM 30.0°F-1.1°C 27.5°F-2.5°C 90% 14.0 mph NE22.5 kmh NE 23.0 mph37.0 kmh 29.26 in990.9 mb 0.00 in0.0 mm 0.00 in0.0 mm 0.00 in0.0 mm
10:36 PM 30.0°F-1.1°C 27.5°F-2.5°C 90% 13.0 mph NE20.9 kmh NE 23.0 mph37.0 kmh 29.26 in990.9 mb 0.00 in0.0 mm 0.00 in0.0 mm 0.00 in0.0 mm
10:39 PM 30.0°F-1.1°C 27.5°F-2.5°C 90% 12.0 mph NE19.3 kmh NE 23.0 mph37.0 kmh 29.26 in990.9 mb 0.00 in0.0 mm 0.00 in0.0 mm 0.00 in0.0 mm
10:42 PM 30.2°F-1.0°C 27.7°F-2.4°C 90% 13.0 mph NE20.9 kmh NE 24.0 mph38.6 kmh 29.26 in990.9 mb 0.00 in0.0 mm 0.00 in0.0 mm 0.00 in0.0 mm
10:45 PM 30.0°F-1.1°C 27.5°F-2.5°C 90% 14.0 mph NE22.5 kmh NE 24.0 mph38.6 kmh 29.25 in990.5 mb 0.00 in0.0 mm 0.00 in0.0 mm 0.00 in0.0 mm
10:48 PM 30.2°F-1.0°C 27.7°F-2.4°C 90% 14.0 mph NE22.5 kmh NE 24.0 mph38.6 kmh 29.25 in990.5 mb 0.00 in0.0 mm 0.00 in0.0 mm 0.00 in0.0 mm
10:51 PM 30.2°F-1.0°C 27.7°F-2.4°C 90% 14.0 mph NE22.5 kmh NE 24.0 mph38.6 kmh 29.25 in990.5 mb 0.00 in0.0 mm 0.00 in0.0 mm 0.00 in0.0 mm
10:54 PM 30.2°F-1.0°C 27.7°F-2.4°C 90% 13.0 mph NE20.9 kmh NE 23.0 mph37.0 kmh 29.25 in990.5 mb 0.00 in0.0 mm 0.00 in0.0 mm 0.00 in0.0 mm
10:57 PM 30.2°F-1.0°C 27.7°F-2.4°C 90% 13.0 mph NE20.9 kmh NE 23.0 mph37.0 kmh 29.25 in990.5 mb 0.00 in0.0 mm 0.00 in0.0 mm 0.00 in0.0 mm
11:00 PM 30.2°F-1.0°C 27.7°F-2.4°C 90% 12.0 mph NE19.3 kmh NE 24.0 mph38.6 kmh 29.25 in990.5 mb 0.00 in0.0 mm 0.00 in0.0 mm 0.00 in0.0 mm
11:03 PM 30.2°F-1.0°C 27.7°F-2.4°C 90% 12.0 mph NE19.3 kmh NE 24.0 mph38.6 kmh 29.25 in990.5 mb 0.00 in0.0 mm 0.00 in0.0 mm 0.00 in0.0 mm
11:06 PM 30.2°F-1.0°C 27.7°F-2.4°C 90% 12.0 mph NE19.3 kmh NE 24.0 mph38.6 kmh 29.25 in990.5 mb 0.00 in0.0 mm 0.00 in0.0 mm 0.00 in0.0 mm
11:09 PM 30.2°F-1.0°C 27.7°F-2.4°C 90% 13.0 mph NE20.9 kmh NE 22.0 mph35.4 kmh 29.25 in990.5 mb 0.00 in0.0 mm 0.00 in0.0 mm 0.00 in0.0 mm
11:12 PM 30.2°F-1.0°C 27.7°F-2.4°C 90% 12.0 mph NE19.3 kmh NE 22.0 mph35.4 kmh 29.25 in990.5 mb 0.00 in0.0 mm 0.00 in0.0 mm 0.00 in0.0 mm
11:15 PM 30.2°F-1.0°C 27.7°F-2.4°C 90% 13.0 mph NE20.9 kmh NE 23.0 mph37.0 kmh 29.24 in990.2 mb 0.00 in0.0 mm 0.00 in0.0 mm 0.00 in0.0 mm
11:18 PM 30.2°F-1.0°C 27.9°F-2.3°C 91% 13.0 mph NE20.9 kmh NE 23.0 mph37.0 kmh 29.24 in990.2 mb 0.00 in0.0 mm 0.00 in0.0 mm 0.00 in0.0 mm
11:21 PM 30.2°F-1.0°C 27.9°F-2.3°C 91% 14.0 mph NE22.5 kmh NE 23.0 mph37.0 kmh 29.24 in990.2 mb 0.00 in0.0 mm 0.00 in0.0 mm 0.00 in0.0 mm
11:24 PM 30.0°F-1.1°C 27.9°F-2.3°C 91% 14.0 mph NE22.5 kmh NE 23.0 mph37.0 kmh 29.24 in990.2 mb 0.00 in0.0 mm 0.00 in0.0 mm 0.00 in0.0 mm
11:27 PM 30.0°F-1.1°C 27.9°F-2.3°C 91% 14.0 mph NE22.5 kmh NE 23.0 mph37.0 kmh 29.24 in990.2 mb 0.00 in0.0 mm 0.00 in0.0 mm 0.00 in0.0 mm
11:30 PM 30.0°F-1.1°C 27.9°F-2.3°C 91% 13.0 mph NE20.9 kmh NE 22.0 mph35.4 kmh 29.24 in990.2 mb 0.00 in0.0 mm 0.00 in0.0 mm 0.00 in0.0 mm
11:33 PM 30.0°F-1.1°C 27.7°F-2.4°C 91% 12.0 mph NE19.3 kmh NE 21.0 mph33.8 kmh 29.24 in990.2 mb 0.00 in0.0 mm 0.00 in0.0 mm 0.00 in0.0 mm
11:36 PM 30.0°F-1.1°C 28.0°F-2.2°C 92% 12.0 mph NE19.3 kmh NE 20.0 mph32.2 kmh 29.24 in990.2 mb 0.00 in0.0 mm 0.00 in0.0 mm 0.00 in0.0 mm
11:39 PM 30.0°F-1.1°C 27.7°F-2.4°C 91% 12.0 mph NE19.3 kmh NE 20.0 mph32.2 kmh 29.24 in990.2 mb 0.00 in0.0 mm 0.00 in0.0 mm 0.00 in0.0 mm
11:42 PM 30.0°F-1.1°C 28.0°F-2.2°C 92% 12.0 mph NE19.3 kmh NE 23.0 mph37.0 kmh 29.23 in989.8 mb 0.00 in0.0 mm 0.00 in0.0 mm 0.00 in0.0 mm
11:45 PM 29.8°F-1.2°C 27.9°F-2.3°C 92% 12.0 mph NE19.3 kmh NE 23.0 mph37.0 kmh 29.23 in989.8 mb 0.00 in0.0 mm 0.00 in0.0 mm 0.00 in0.0 mm
11:48 PM 29.8°F-1.2°C 27.9°F-2.3°C 92% 12.0 mph NE19.3 kmh NE 23.0 mph37.0 kmh 29.23 in989.8 mb 0.00 in0.0 mm 0.00 in0.0 mm 0.00 in0.0 mm
11:51 PM 29.8°F-1.2°C 27.9°F-2.3°C 92% 12.0 mph NE19.3 kmh NE 22.0 mph35.4 kmh 29.23 in989.8 mb 0.00 in0.0 mm 0.00 in0.0 mm 0.00 in0.0 mm
11:54 PM 29.8°F-1.2°C 27.9°F-2.3°C 92% 12.0 mph NE19.3 kmh NE 22.0 mph35.4 kmh 29.23 in989.8 mb 0.00 in0.0 mm 0.00 in0.0 mm 0.00 in0.0 mm
11:57 PM 29.8°F-1.2°C 27.9°F-2.3°C 92% 12.0 mph NE19.3 kmh NE 22.0 mph35.4 kmh 29.23 in989.8 mb 0.00 in0.0 mm 0.00 in0.0 mm 0.00 in0.0 mm